<?xml version="1.0" encoding="UTF-8" standalone="no" ?>
<gpx xmlns="http://www.topografix.com/GPX/1/1" xmlns:xsi="http://www.w3.org/2001/XMLSchema-instance" xsi:schemaLocation="http://www.topografix.com/GPX/1/1 http://www.topografix.com/GPX/1/1/gpx.xsd" version="1.1" creator="VisuGPX - https://www.visugpx.com">
  <metadata>
    <name>micro sortie encore 23 novembre 20212021-11-23 15:45</name>
    <desc><![CDATA[Soleil, 6°, avec cagoule cette fois.
Heure de départ: 15:45 Heure d'arrivée: 16:38
Distance: 9,4 km (00:53) Temps déplacement: 00:48 Vitesse moyenne: 10,53 km/h Vitesse moyenne mouv.: 11,72 km/h Vitesse Max.: 37,1 km/h
Altitude minimale: 142 m Altitude maximale: 294 m Vitesse de montée: 440,4 m/h Vitesse de descente: -453,5 m/h
Temps de montée: 00:26 Temps de descente: 00:22
Finalement je passe autant de temps à me préparer et me doucher qu' à pédaler !!!
[i]PS : j'ai un doute concernant l'altitude minimale donnée[/i]]]></desc>
  </metadata>
  <wpt lat="47.64424" lon="6.18329">
    <ele>224.3</ele>
    <name><![CDATA[0000372]]></name>
    <type><![CDATA[Point de départ]]></type>
  </wpt>
  <wpt lat="47.64424" lon="6.18329">
    <ele>224.3</ele>
    <name><![CDATA[0000372]]></name>
    <type><![CDATA[Point de départ]]></type>
  </wpt>
  <wpt lat="47.64438" lon="6.18332">
    <ele>225.4</ele>
    <name><![CDATA[0000374]]></name>
    <desc><![CDATA[<p><br /><h3>Nom: Segment: 1</h3><br />Heure de départ: 11/23/2021 15:45<br/>Heure d'arrivée: 11/23/2021 16:38<br/>Distance: 9,4km (00:53)<br/>Temps déplacement: 00:48<br/>Vitesse moyenne: 10,53 km/h<br/>Vitesse moyenne mouv.: 11,7 km/h<br/>Vitesse Max.: 37,1 km/h<br/>Altitude minimale: 142 m<br/>Altitude maximale: 294 m<br/>Vitesse de montée: 504,9 m/h<br/>Vitesse de descente: -522 m/h<br/>Gain d'altitude: 212 m<br/>Perte d'altitude: -187 m<br/>Temps de montée: 00:25<br/>Temps de descente: 00:21<br/></p>]]></desc>
    <type><![CDATA[Point d'arrivée]]></type>
  </wpt>
  <trk>
    <name><![CDATA[2021-11-23 15:45]]></name>
    <desc><![CDATA[<p>Heure de départ: 11/23/2021 15:45<br/>Heure d'arrivée: 11/23/2021 16:38<br/>Distance: 9,4 km (00:53)<br/>Temps déplacement: 00:48<br/>Vitesse moyenne: 10,53 km/h<br/>Vitesse moyenne mouv.: 11,72 km/h<br/>Vitesse Max.: 37,1 km/h<br/>Altitude minimale: 142 m<br/>Altitude maximale: 294 m<br/>Vitesse de montée: 440,4 m/h<br/>Vitesse de descente: -453,5 m/h<br/>Gain d'altitude: 191 m<br/>Perte d'altitude: -168 m<br/>Temps de montée: 00:26<br/>Temps de descente: 00:22<br/></p><hr align="center" width="480" style="height: 2px; width: 517px"/>]]></desc>
    <trkseg>
      <trkpt lat="47.64424" lon="6.18329">
        <ele>224.3</ele>
        <time>2021-11-23T14:45:22Z</time>
      </trkpt>
      <trkpt lat="47.64434" lon="6.1834">
        <ele>225.8</ele>
        <time>2021-11-23T14:45:23Z</time>
      </trkpt>
      <trkpt lat="47.6444" lon="6.18346">
        <ele>227</ele>
        <time>2021-11-23T14:45:24Z</time>
      </trkpt>
      <trkpt lat="47.64447" lon="6.1835">
        <ele>228.2</ele>
        <time>2021-11-23T14:45:26Z</time>
      </trkpt>
      <trkpt lat="47.64452" lon="6.18351">
        <ele>229.3</ele>
        <time>2021-11-23T14:45:27Z</time>
      </trkpt>
      <trkpt lat="47.64454" lon="6.18345">
        <ele>229</ele>
        <time>2021-11-23T14:45:36Z</time>
      </trkpt>
      <trkpt lat="47.6445" lon="6.18339">
        <ele>227.5</ele>
        <time>2021-11-23T14:46:02Z</time>
      </trkpt>
      <trkpt lat="47.64447" lon="6.18331">
        <ele>226.3</ele>
        <time>2021-11-23T14:46:23Z</time>
      </trkpt>
      <trkpt lat="47.64446" lon="6.18324">
        <ele>225.6</ele>
        <time>2021-11-23T14:46:25Z</time>
      </trkpt>
      <trkpt lat="47.64445" lon="6.18317">
        <ele>224.9</ele>
        <time>2021-11-23T14:46:39Z</time>
      </trkpt>
      <trkpt lat="47.64443" lon="6.18309">
        <ele>224.2</ele>
        <time>2021-11-23T14:46:40Z</time>
      </trkpt>
      <trkpt lat="47.64442" lon="6.183">
        <ele>223.7</ele>
        <time>2021-11-23T14:46:43Z</time>
      </trkpt>
      <trkpt lat="47.64445" lon="6.18292">
        <ele>223.5</ele>
        <time>2021-11-23T14:46:46Z</time>
      </trkpt>
      <trkpt lat="47.64449" lon="6.18287">
        <ele>223.8</ele>
        <time>2021-11-23T14:46:48Z</time>
      </trkpt>
      <trkpt lat="47.64452" lon="6.18283">
        <ele>223.9</ele>
        <time>2021-11-23T14:46:50Z</time>
      </trkpt>
      <trkpt lat="47.64457" lon="6.18277">
        <ele>223.9</ele>
        <time>2021-11-23T14:46:52Z</time>
      </trkpt>
      <trkpt lat="47.64462" lon="6.18272">
        <ele>223.9</ele>
        <time>2021-11-23T14:46:54Z</time>
      </trkpt>
      <trkpt lat="47.64466" lon="6.18267">
        <ele>223.8</ele>
        <time>2021-11-23T14:46:56Z</time>
      </trkpt>
      <trkpt lat="47.6447" lon="6.1826">
        <ele>223.6</ele>
        <time>2021-11-23T14:46:58Z</time>
      </trkpt>
      <trkpt lat="47.64476" lon="6.18251">
        <ele>223.8</ele>
        <time>2021-11-23T14:47:00Z</time>
      </trkpt>
      <trkpt lat="47.64479" lon="6.18245">
        <ele>224.3</ele>
        <time>2021-11-23T14:47:01Z</time>
      </trkpt>
      <trkpt lat="47.64482" lon="6.18239">
        <ele>224.7</ele>
        <time>2021-11-23T14:47:02Z</time>
      </trkpt>
      <trkpt lat="47.64485" lon="6.18232">
        <ele>224.9</ele>
        <time>2021-11-23T14:47:03Z</time>
      </trkpt>
      <trkpt lat="47.64488" lon="6.18226">
        <ele>225</ele>
        <time>2021-11-23T14:47:04Z</time>
      </trkpt>
      <trkpt lat="47.64492" lon="6.18216">
        <ele>224.8</ele>
        <time>2021-11-23T14:47:06Z</time>
      </trkpt>
      <trkpt lat="47.64494" lon="6.18208">
        <ele>224.5</ele>
        <time>2021-11-23T14:47:08Z</time>
      </trkpt>
      <trkpt lat="47.64497" lon="6.18197">
        <ele>223.9</ele>
        <time>2021-11-23T14:47:10Z</time>
      </trkpt>
      <trkpt lat="47.64499" lon="6.18185">
        <ele>223.6</ele>
        <time>2021-11-23T14:47:12Z</time>
      </trkpt>
      <trkpt lat="47.64499" lon="6.18177">
        <ele>223.3</ele>
        <time>2021-11-23T14:47:13Z</time>
      </trkpt>
      <trkpt lat="47.64498" lon="6.18168">
        <ele>223</ele>
        <time>2021-11-23T14:47:14Z</time>
      </trkpt>
      <trkpt lat="47.64496" lon="6.18161">
        <ele>222.9</ele>
        <time>2021-11-23T14:47:15Z</time>
      </trkpt>
      <trkpt lat="47.64494" lon="6.18153">
        <ele>222.9</ele>
        <time>2021-11-23T14:47:16Z</time>
      </trkpt>
      <trkpt lat="47.64493" lon="6.18147">
        <ele>222.9</ele>
        <time>2021-11-23T14:47:17Z</time>
      </trkpt>
      <trkpt lat="47.64493" lon="6.18135">
        <ele>223</ele>
        <time>2021-11-23T14:47:19Z</time>
      </trkpt>
      <trkpt lat="47.64495" lon="6.18122">
        <ele>222.9</ele>
        <time>2021-11-23T14:47:21Z</time>
      </trkpt>
      <trkpt lat="47.64498" lon="6.18111">
        <ele>222.9</ele>
        <time>2021-11-23T14:47:23Z</time>
      </trkpt>
      <trkpt lat="47.645" lon="6.181">
        <ele>223</ele>
        <time>2021-11-23T14:47:25Z</time>
      </trkpt>
      <trkpt lat="47.64503" lon="6.18089">
        <ele>223.4</ele>
        <time>2021-11-23T14:47:27Z</time>
      </trkpt>
      <trkpt lat="47.64505" lon="6.1808">
        <ele>223.8</ele>
        <time>2021-11-23T14:47:29Z</time>
      </trkpt>
      <trkpt lat="47.64508" lon="6.18072">
        <ele>224.3</ele>
        <time>2021-11-23T14:47:31Z</time>
      </trkpt>
      <trkpt lat="47.6451" lon="6.18063">
        <ele>224.7</ele>
        <time>2021-11-23T14:47:33Z</time>
      </trkpt>
      <trkpt lat="47.64513" lon="6.18054">
        <ele>224.9</ele>
        <time>2021-11-23T14:47:35Z</time>
      </trkpt>
      <trkpt lat="47.64513" lon="6.18046">
        <ele>224.6</ele>
        <time>2021-11-23T14:47:37Z</time>
      </trkpt>
      <trkpt lat="47.64507" lon="6.18044">
        <ele>224.1</ele>
        <time>2021-11-23T14:47:39Z</time>
      </trkpt>
      <trkpt lat="47.64504" lon="6.18051">
        <ele>224.1</ele>
        <time>2021-11-23T14:47:41Z</time>
      </trkpt>
      <trkpt lat="47.64504" lon="6.18059">
        <ele>224.2</ele>
        <time>2021-11-23T14:47:43Z</time>
      </trkpt>
      <trkpt lat="47.64501" lon="6.18067">
        <ele>223.7</ele>
        <time>2021-11-23T14:47:45Z</time>
      </trkpt>
      <trkpt lat="47.64496" lon="6.18076">
        <ele>223.2</ele>
        <time>2021-11-23T14:47:47Z</time>
      </trkpt>
      <trkpt lat="47.64492" lon="6.18085">
        <ele>223</ele>
        <time>2021-11-23T14:47:49Z</time>
      </trkpt>
      <trkpt lat="47.64489" lon="6.18093">
        <ele>222.9</ele>
        <time>2021-11-23T14:47:53Z</time>
      </trkpt>
      <trkpt lat="47.64485" lon="6.18103">
        <ele>222.6</ele>
        <time>2021-11-23T14:47:54Z</time>
      </trkpt>
      <trkpt lat="47.64482" lon="6.18111">
        <ele>222.4</ele>
        <time>2021-11-23T14:47:56Z</time>
      </trkpt>
      <trkpt lat="47.6448" lon="6.18118">
        <ele>222.5</ele>
        <time>2021-11-23T14:47:57Z</time>
      </trkpt>
      <trkpt lat="47.64478" lon="6.1813">
        <ele>222.7</ele>
        <time>2021-11-23T14:47:58Z</time>
      </trkpt>
      <trkpt lat="47.64476" lon="6.18142">
        <ele>222.9</ele>
        <time>2021-11-23T14:48:00Z</time>
      </trkpt>
      <trkpt lat="47.64478" lon="6.18169">
        <ele>222.2</ele>
        <time>2021-11-23T14:48:04Z</time>
      </trkpt>
      <trkpt lat="47.64479" lon="6.18177">
        <ele>222.3</ele>
        <time>2021-11-23T14:48:05Z</time>
      </trkpt>
      <trkpt lat="47.6448" lon="6.18184">
        <ele>222.4</ele>
        <time>2021-11-23T14:48:06Z</time>
      </trkpt>
      <trkpt lat="47.64477" lon="6.18194">
        <ele>222.3</ele>
        <time>2021-11-23T14:48:08Z</time>
      </trkpt>
      <trkpt lat="47.64474" lon="6.182">
        <ele>222.3</ele>
        <time>2021-11-23T14:48:10Z</time>
      </trkpt>
      <trkpt lat="47.64471" lon="6.18208">
        <ele>222.5</ele>
        <time>2021-11-23T14:48:12Z</time>
      </trkpt>
      <trkpt lat="47.64469" lon="6.18217">
        <ele>222.7</ele>
        <time>2021-11-23T14:48:14Z</time>
      </trkpt>
      <trkpt lat="47.64464" lon="6.18231">
        <ele>222.7</ele>
        <time>2021-11-23T14:48:18Z</time>
      </trkpt>
      <trkpt lat="47.64461" lon="6.18241">
        <ele>222.6</ele>
        <time>2021-11-23T14:48:20Z</time>
      </trkpt>
      <trkpt lat="47.64455" lon="6.18258">
        <ele>222.8</ele>
        <time>2021-11-23T14:48:23Z</time>
      </trkpt>
      <trkpt lat="47.64449" lon="6.18271">
        <ele>223</ele>
        <time>2021-11-23T14:48:24Z</time>
      </trkpt>
      <trkpt lat="47.64446" lon="6.18279">
        <ele>223.1</ele>
        <time>2021-11-23T14:48:29Z</time>
      </trkpt>
      <trkpt lat="47.64438" lon="6.18289">
        <ele>223.2</ele>
        <time>2021-11-23T14:48:33Z</time>
      </trkpt>
      <trkpt lat="47.64434" lon="6.18295">
        <ele>223.3</ele>
        <time>2021-11-23T14:48:35Z</time>
      </trkpt>
      <trkpt lat="47.64435" lon="6.18311">
        <ele>224</ele>
        <time>2021-11-23T14:48:37Z</time>
      </trkpt>
      <trkpt lat="47.64435" lon="6.18318">
        <ele>224.4</ele>
        <time>2021-11-23T14:48:41Z</time>
      </trkpt>
      <trkpt lat="47.64434" lon="6.18326">
        <ele>224.8</ele>
        <time>2021-11-23T14:48:43Z</time>
      </trkpt>
      <trkpt lat="47.6443" lon="6.18332">
        <ele>224.9</ele>
        <time>2021-11-23T14:48:44Z</time>
      </trkpt>
      <trkpt lat="47.64436" lon="6.18334">
        <ele>225.5</ele>
        <time>2021-11-23T14:49:04Z</time>
      </trkpt>
      <trkpt lat="47.64441" lon="6.18337">
        <ele>226.1</ele>
        <time>2021-11-23T14:49:06Z</time>
      </trkpt>
      <trkpt lat="47.64441" lon="6.18329">
        <ele>225.4</ele>
        <time>2021-11-23T14:49:16Z</time>
      </trkpt>
      <trkpt lat="47.64445" lon="6.18329">
        <ele>225.8</ele>
        <time>2021-11-23T14:50:27Z</time>
      </trkpt>
      <trkpt lat="47.64443" lon="6.18322">
        <ele>225.1</ele>
        <time>2021-11-23T14:52:06Z</time>
      </trkpt>
      <trkpt lat="47.64443" lon="6.18314">
        <ele>224.6</ele>
        <time>2021-11-23T14:52:08Z</time>
      </trkpt>
      <trkpt lat="47.64445" lon="6.18308">
        <ele>224.2</ele>
        <time>2021-11-23T14:52:09Z</time>
      </trkpt>
      <trkpt lat="47.64449" lon="6.18301">
        <ele>224.5</ele>
        <time>2021-11-23T14:52:14Z</time>
      </trkpt>
      <trkpt lat="47.64456" lon="6.1829">
        <ele>224.6</ele>
        <time>2021-11-23T14:52:16Z</time>
      </trkpt>
      <trkpt lat="47.64459" lon="6.18284">
        <ele>224.5</ele>
        <time>2021-11-23T14:52:18Z</time>
      </trkpt>
      <trkpt lat="47.64462" lon="6.18279">
        <ele>224.4</ele>
        <time>2021-11-23T14:52:20Z</time>
      </trkpt>
      <trkpt lat="47.64466" lon="6.18274">
        <ele>224.3</ele>
        <time>2021-11-23T14:52:24Z</time>
      </trkpt>
      <trkpt lat="47.6447" lon="6.18268">
        <ele>224.2</ele>
        <time>2021-11-23T14:52:26Z</time>
      </trkpt>
      <trkpt lat="47.64476" lon="6.18259">
        <ele>224.4</ele>
        <time>2021-11-23T14:52:28Z</time>
      </trkpt>
      <trkpt lat="47.6448" lon="6.18251">
        <ele>224.7</ele>
        <time>2021-11-23T14:52:30Z</time>
      </trkpt>
      <trkpt lat="47.64482" lon="6.18245">
        <ele>225</ele>
        <time>2021-11-23T14:52:31Z</time>
      </trkpt>
      <trkpt lat="47.64485" lon="6.18239">
        <ele>225.2</ele>
        <time>2021-11-23T14:52:31Z</time>
      </trkpt>
      <trkpt lat="47.64489" lon="6.1823">
        <ele>225.3</ele>
        <time>2021-11-23T14:52:33Z</time>
      </trkpt>
      <trkpt lat="47.64497" lon="6.18206">
        <ele>224.6</ele>
        <time>2021-11-23T14:52:37Z</time>
      </trkpt>
      <trkpt lat="47.64501" lon="6.18183">
        <ele>223.9</ele>
        <time>2021-11-23T14:52:38Z</time>
      </trkpt>
      <trkpt lat="47.645" lon="6.18175">
        <ele>223.4</ele>
        <time>2021-11-23T14:52:39Z</time>
      </trkpt>
      <trkpt lat="47.64498" lon="6.18167">
        <ele>223</ele>
        <time>2021-11-23T14:52:40Z</time>
      </trkpt>
      <trkpt lat="47.64496" lon="6.1816">
        <ele>222.9</ele>
        <time>2021-11-23T14:52:41Z</time>
      </trkpt>
      <trkpt lat="47.64495" lon="6.18152">
        <ele>222.9</ele>
        <time>2021-11-23T14:52:42Z</time>
      </trkpt>
      <trkpt lat="47.64494" lon="6.18145">
        <ele>223</ele>
        <time>2021-11-23T14:52:43Z</time>
      </trkpt>
      <trkpt lat="47.64494" lon="6.18138">
        <ele>223</ele>
        <time>2021-11-23T14:52:44Z</time>
      </trkpt>
      <trkpt lat="47.64494" lon="6.1813">
        <ele>222.9</ele>
        <time>2021-11-23T14:52:45Z</time>
      </trkpt>
      <trkpt lat="47.64495" lon="6.18123">
        <ele>222.9</ele>
        <time>2021-11-23T14:52:46Z</time>
      </trkpt>
      <trkpt lat="47.64497" lon="6.18116">
        <ele>222.9</ele>
        <time>2021-11-23T14:52:47Z</time>
      </trkpt>
      <trkpt lat="47.64498" lon="6.18109">
        <ele>222.9</ele>
        <time>2021-11-23T14:52:48Z</time>
      </trkpt>
      <trkpt lat="47.645" lon="6.18099">
        <ele>223</ele>
        <time>2021-11-23T14:52:50Z</time>
      </trkpt>
      <trkpt lat="47.64502" lon="6.18087">
        <ele>223.3</ele>
        <time>2021-11-23T14:52:52Z</time>
      </trkpt>
      <trkpt lat="47.64505" lon="6.18078">
        <ele>223.8</ele>
        <time>2021-11-23T14:52:54Z</time>
      </trkpt>
      <trkpt lat="47.64508" lon="6.1807">
        <ele>224.4</ele>
        <time>2021-11-23T14:52:58Z</time>
      </trkpt>
      <trkpt lat="47.6451" lon="6.18063">
        <ele>224.7</ele>
        <time>2021-11-23T14:52:59Z</time>
      </trkpt>
      <trkpt lat="47.64509" lon="6.18054">
        <ele>224.6</ele>
        <time>2021-11-23T14:53:01Z</time>
      </trkpt>
      <trkpt lat="47.64501" lon="6.18046">
        <ele>223.7</ele>
        <time>2021-11-23T14:53:04Z</time>
      </trkpt>
      <trkpt lat="47.64495" lon="6.18043">
        <ele>223.5</ele>
        <time>2021-11-23T14:53:05Z</time>
      </trkpt>
      <trkpt lat="47.64482" lon="6.18034">
        <ele>223.1</ele>
        <time>2021-11-23T14:53:06Z</time>
      </trkpt>
      <trkpt lat="47.64477" lon="6.1803">
        <ele>223</ele>
        <time>2021-11-23T14:53:07Z</time>
      </trkpt>
      <trkpt lat="47.64472" lon="6.18026">
        <ele>223</ele>
        <time>2021-11-23T14:53:08Z</time>
      </trkpt>
      <trkpt lat="47.64468" lon="6.18022">
        <ele>223</ele>
        <time>2021-11-23T14:53:09Z</time>
      </trkpt>
      <trkpt lat="47.64463" lon="6.18018">
        <ele>223</ele>
        <time>2021-11-23T14:53:10Z</time>
      </trkpt>
      <trkpt lat="47.64459" lon="6.18012">
        <ele>223</ele>
        <time>2021-11-23T14:53:10Z</time>
      </trkpt>
      <trkpt lat="47.64456" lon="6.18007">
        <ele>223</ele>
        <time>2021-11-23T14:53:11Z</time>
      </trkpt>
      <trkpt lat="47.64452" lon="6.18001">
        <ele>223</ele>
        <time>2021-11-23T14:53:12Z</time>
      </trkpt>
      <trkpt lat="47.64449" lon="6.17995">
        <ele>222.8</ele>
        <time>2021-11-23T14:53:13Z</time>
      </trkpt>
      <trkpt lat="47.64446" lon="6.17988">
        <ele>222.6</ele>
        <time>2021-11-23T14:53:14Z</time>
      </trkpt>
      <trkpt lat="47.64443" lon="6.17982">
        <ele>222.3</ele>
        <time>2021-11-23T14:53:15Z</time>
      </trkpt>
      <trkpt lat="47.6444" lon="6.17976">
        <ele>222.1</ele>
        <time>2021-11-23T14:53:16Z</time>
      </trkpt>
      <trkpt lat="47.64437" lon="6.17971">
        <ele>222</ele>
        <time>2021-11-23T14:53:17Z</time>
      </trkpt>
      <trkpt lat="47.64434" lon="6.17966">
        <ele>222</ele>
        <time>2021-11-23T14:53:18Z</time>
      </trkpt>
      <trkpt lat="47.6443" lon="6.17957">
        <ele>222</ele>
        <time>2021-11-23T14:53:20Z</time>
      </trkpt>
      <trkpt lat="47.64425" lon="6.17948">
        <ele>222</ele>
        <time>2021-11-23T14:53:22Z</time>
      </trkpt>
      <trkpt lat="47.6442" lon="6.1794">
        <ele>222.2</ele>
        <time>2021-11-23T14:53:24Z</time>
      </trkpt>
      <trkpt lat="47.64414" lon="6.17931">
        <ele>222.4</ele>
        <time>2021-11-23T14:53:29Z</time>
      </trkpt>
      <trkpt lat="47.64413" lon="6.17924">
        <ele>222.7</ele>
        <time>2021-11-23T14:53:30Z</time>
      </trkpt>
      <trkpt lat="47.64406" lon="6.17909">
        <ele>222.6</ele>
        <time>2021-11-23T14:53:30Z</time>
      </trkpt>
      <trkpt lat="47.64403" lon="6.17904">
        <ele>222.5</ele>
        <time>2021-11-23T14:53:31Z</time>
      </trkpt>
      <trkpt lat="47.64399" lon="6.17896">
        <ele>222.6</ele>
        <time>2021-11-23T14:53:36Z</time>
      </trkpt>
      <trkpt lat="47.64394" lon="6.17888">
        <ele>222.8</ele>
        <time>2021-11-23T14:53:38Z</time>
      </trkpt>
      <trkpt lat="47.64391" lon="6.17884">
        <ele>222.8</ele>
        <time>2021-11-23T14:53:39Z</time>
      </trkpt>
      <trkpt lat="47.64388" lon="6.17891">
        <ele>222.9</ele>
        <time>2021-11-23T14:53:39Z</time>
      </trkpt>
      <trkpt lat="47.64391" lon="6.17896">
        <ele>222.7</ele>
        <time>2021-11-23T14:53:41Z</time>
      </trkpt>
      <trkpt lat="47.64394" lon="6.17903">
        <ele>222.5</ele>
        <time>2021-11-23T14:53:46Z</time>
      </trkpt>
      <trkpt lat="47.644" lon="6.17919">
        <ele>222.4</ele>
        <time>2021-11-23T14:53:50Z</time>
      </trkpt>
      <trkpt lat="47.64403" lon="6.17925">
        <ele>222.4</ele>
        <time>2021-11-23T14:53:51Z</time>
      </trkpt>
      <trkpt lat="47.64406" lon="6.17932">
        <ele>222.3</ele>
        <time>2021-11-23T14:53:53Z</time>
      </trkpt>
      <trkpt lat="47.64411" lon="6.1794">
        <ele>222.1</ele>
        <time>2021-11-23T14:53:55Z</time>
      </trkpt>
      <trkpt lat="47.64416" lon="6.17946">
        <ele>222</ele>
        <time>2021-11-23T14:53:57Z</time>
      </trkpt>
      <trkpt lat="47.64423" lon="6.17961">
        <ele>222</ele>
        <time>2021-11-23T14:53:58Z</time>
      </trkpt>
      <trkpt lat="47.64426" lon="6.17967">
        <ele>222</ele>
        <time>2021-11-23T14:54:03Z</time>
      </trkpt>
      <trkpt lat="47.6443" lon="6.17973">
        <ele>222</ele>
        <time>2021-11-23T14:54:05Z</time>
      </trkpt>
      <trkpt lat="47.64434" lon="6.1798">
        <ele>222.2</ele>
        <time>2021-11-23T14:54:06Z</time>
      </trkpt>
      <trkpt lat="47.6444" lon="6.17992">
        <ele>222.6</ele>
        <time>2021-11-23T14:54:06Z</time>
      </trkpt>
      <trkpt lat="47.64444" lon="6.17999">
        <ele>222.9</ele>
        <time>2021-11-23T14:54:10Z</time>
      </trkpt>
      <trkpt lat="47.64455" lon="6.18015">
        <ele>223</ele>
        <time>2021-11-23T14:54:14Z</time>
      </trkpt>
      <trkpt lat="47.6446" lon="6.18021">
        <ele>223</ele>
        <time>2021-11-23T14:54:15Z</time>
      </trkpt>
      <trkpt lat="47.64466" lon="6.18029">
        <ele>223</ele>
        <time>2021-11-23T14:54:18Z</time>
      </trkpt>
      <trkpt lat="47.64464" lon="6.18036">
        <ele>222.9</ele>
        <time>2021-11-23T14:54:20Z</time>
      </trkpt>
      <trkpt lat="47.64463" lon="6.18045">
        <ele>222.8</ele>
        <time>2021-11-23T14:54:20Z</time>
      </trkpt>
      <trkpt lat="47.64464" lon="6.18051">
        <ele>222.8</ele>
        <time>2021-11-23T14:54:27Z</time>
      </trkpt>
      <trkpt lat="47.64469" lon="6.18054">
        <ele>222.9</ele>
        <time>2021-11-23T14:54:27Z</time>
      </trkpt>
      <trkpt lat="47.64473" lon="6.18056">
        <ele>223</ele>
        <time>2021-11-23T14:54:31Z</time>
      </trkpt>
      <trkpt lat="47.64468" lon="6.18053">
        <ele>222.9</ele>
        <time>2021-11-23T14:55:12Z</time>
      </trkpt>
      <trkpt lat="47.64464" lon="6.18058">
        <ele>222.7</ele>
        <time>2021-11-23T14:55:16Z</time>
      </trkpt>
      <trkpt lat="47.64463" lon="6.1805">
        <ele>222.7</ele>
        <time>2021-11-23T14:55:36Z</time>
      </trkpt>
      <trkpt lat="47.64465" lon="6.18041">
        <ele>222.9</ele>
        <time>2021-11-23T14:55:39Z</time>
      </trkpt>
      <trkpt lat="47.64467" lon="6.18035">
        <ele>223</ele>
        <time>2021-11-23T14:55:41Z</time>
      </trkpt>
      <trkpt lat="47.64472" lon="6.18033">
        <ele>223</ele>
        <time>2021-11-23T14:55:43Z</time>
      </trkpt>
      <trkpt lat="47.64476" lon="6.18037">
        <ele>223</ele>
        <time>2021-11-23T14:55:45Z</time>
      </trkpt>
      <trkpt lat="47.6448" lon="6.18043">
        <ele>223.2</ele>
        <time>2021-11-23T14:55:47Z</time>
      </trkpt>
      <trkpt lat="47.64485" lon="6.18046">
        <ele>223.3</ele>
        <time>2021-11-23T14:55:49Z</time>
      </trkpt>
      <trkpt lat="47.64491" lon="6.18049">
        <ele>223.5</ele>
        <time>2021-11-23T14:55:51Z</time>
      </trkpt>
      <trkpt lat="47.64495" lon="6.18051">
        <ele>223.7</ele>
        <time>2021-11-23T14:55:53Z</time>
      </trkpt>
      <trkpt lat="47.645" lon="6.18053">
        <ele>223.9</ele>
        <time>2021-11-23T14:55:55Z</time>
      </trkpt>
      <trkpt lat="47.64505" lon="6.18053">
        <ele>224.3</ele>
        <time>2021-11-23T14:55:57Z</time>
      </trkpt>
      <trkpt lat="47.6451" lon="6.18051">
        <ele>224.6</ele>
        <time>2021-11-23T14:55:59Z</time>
      </trkpt>
      <trkpt lat="47.64515" lon="6.18049">
        <ele>224.8</ele>
        <time>2021-11-23T14:56:01Z</time>
      </trkpt>
      <trkpt lat="47.64521" lon="6.18045">
        <ele>225.1</ele>
        <time>2021-11-23T14:56:04Z</time>
      </trkpt>
      <trkpt lat="47.64527" lon="6.1804">
        <ele>225.4</ele>
        <time>2021-11-23T14:56:07Z</time>
      </trkpt>
      <trkpt lat="47.64531" lon="6.18036">
        <ele>225.7</ele>
        <time>2021-11-23T14:56:12Z</time>
      </trkpt>
      <trkpt lat="47.64536" lon="6.18036">
        <ele>226.6</ele>
        <time>2021-11-23T14:56:15Z</time>
      </trkpt>
      <trkpt lat="47.64539" lon="6.18044">
        <ele>227.4</ele>
        <time>2021-11-23T14:56:15Z</time>
      </trkpt>
      <trkpt lat="47.64541" lon="6.1805">
        <ele>228.1</ele>
        <time>2021-11-23T14:56:22Z</time>
      </trkpt>
      <trkpt lat="47.64542" lon="6.18057">
        <ele>228.6</ele>
        <time>2021-11-23T14:56:23Z</time>
      </trkpt>
      <trkpt lat="47.64543" lon="6.18064">
        <ele>229.1</ele>
        <time>2021-11-23T14:56:27Z</time>
      </trkpt>
      <trkpt lat="47.64544" lon="6.1807">
        <ele>229.7</ele>
        <time>2021-11-23T14:56:35Z</time>
      </trkpt>
      <trkpt lat="47.64545" lon="6.18079">
        <ele>230.4</ele>
        <time>2021-11-23T14:56:39Z</time>
      </trkpt>
      <trkpt lat="47.64546" lon="6.18085">
        <ele>231.1</ele>
        <time>2021-11-23T14:56:40Z</time>
      </trkpt>
      <trkpt lat="47.64549" lon="6.18092">
        <ele>231.9</ele>
        <time>2021-11-23T14:56:49Z</time>
      </trkpt>
      <trkpt lat="47.6455" lon="6.181">
        <ele>232.4</ele>
        <time>2021-11-23T14:56:51Z</time>
      </trkpt>
      <trkpt lat="47.64555" lon="6.18099">
        <ele>233.4</ele>
        <time>2021-11-23T14:56:59Z</time>
      </trkpt>
      <trkpt lat="47.64558" lon="6.18094">
        <ele>233.9</ele>
        <time>2021-11-23T14:57:03Z</time>
      </trkpt>
      <trkpt lat="47.64562" lon="6.1809">
        <ele>234.7</ele>
        <time>2021-11-23T14:57:10Z</time>
      </trkpt>
      <trkpt lat="47.64565" lon="6.18086">
        <ele>235.3</ele>
        <time>2021-11-23T14:57:11Z</time>
      </trkpt>
      <trkpt lat="47.64566" lon="6.18079">
        <ele>235</ele>
        <time>2021-11-23T14:57:15Z</time>
      </trkpt>
      <trkpt lat="47.64571" lon="6.18074">
        <ele>235.5</ele>
        <time>2021-11-23T14:57:23Z</time>
      </trkpt>
      <trkpt lat="47.64572" lon="6.18067">
        <ele>235.4</ele>
        <time>2021-11-23T14:57:24Z</time>
      </trkpt>
      <trkpt lat="47.64576" lon="6.18062">
        <ele>235.9</ele>
        <time>2021-11-23T14:57:29Z</time>
      </trkpt>
      <trkpt lat="47.64579" lon="6.18057">
        <ele>236.2</ele>
        <time>2021-11-23T14:57:34Z</time>
      </trkpt>
      <trkpt lat="47.64576" lon="6.18062">
        <ele>235.9</ele>
        <time>2021-11-23T14:57:49Z</time>
      </trkpt>
      <trkpt lat="47.6457" lon="6.18078">
        <ele>235.6</ele>
        <time>2021-11-23T14:57:53Z</time>
      </trkpt>
      <trkpt lat="47.64566" lon="6.18085">
        <ele>235.3</ele>
        <time>2021-11-23T14:57:54Z</time>
      </trkpt>
      <trkpt lat="47.6456" lon="6.18093">
        <ele>234.5</ele>
        <time>2021-11-23T14:57:55Z</time>
      </trkpt>
      <trkpt lat="47.64555" lon="6.18096">
        <ele>233.4</ele>
        <time>2021-11-23T14:57:57Z</time>
      </trkpt>
      <trkpt lat="47.6455" lon="6.18091">
        <ele>232.1</ele>
        <time>2021-11-23T14:57:58Z</time>
      </trkpt>
      <trkpt lat="47.6455" lon="6.18084">
        <ele>231.7</ele>
        <time>2021-11-23T14:58:00Z</time>
      </trkpt>
      <trkpt lat="47.6455" lon="6.18076">
        <ele>231.3</ele>
        <time>2021-11-23T14:58:01Z</time>
      </trkpt>
      <trkpt lat="47.64544" lon="6.1805">
        <ele>228.6</ele>
        <time>2021-11-23T14:58:05Z</time>
      </trkpt>
      <trkpt lat="47.64542" lon="6.18043">
        <ele>227.8</ele>
        <time>2021-11-23T14:58:06Z</time>
      </trkpt>
      <trkpt lat="47.64541" lon="6.18019">
        <ele>226.8</ele>
        <time>2021-11-23T14:58:09Z</time>
      </trkpt>
      <trkpt lat="47.64547" lon="6.18003">
        <ele>227.2</ele>
        <time>2021-11-23T14:58:13Z</time>
      </trkpt>
      <trkpt lat="47.6455" lon="6.17996">
        <ele>227.1</ele>
        <time>2021-11-23T14:58:15Z</time>
      </trkpt>
      <trkpt lat="47.64552" lon="6.1799">
        <ele>226.9</ele>
        <time>2021-11-23T14:58:17Z</time>
      </trkpt>
      <trkpt lat="47.64554" lon="6.17982">
        <ele>226.6</ele>
        <time>2021-11-23T14:58:19Z</time>
      </trkpt>
      <trkpt lat="47.64556" lon="6.17975">
        <ele>226.3</ele>
        <time>2021-11-23T14:58:21Z</time>
      </trkpt>
      <trkpt lat="47.64559" lon="6.17967">
        <ele>226.2</ele>
        <time>2021-11-23T14:58:23Z</time>
      </trkpt>
      <trkpt lat="47.6456" lon="6.1796">
        <ele>226</ele>
        <time>2021-11-23T14:58:24Z</time>
      </trkpt>
      <trkpt lat="47.64567" lon="6.17936">
        <ele>224.6</ele>
        <time>2021-11-23T14:58:24Z</time>
      </trkpt>
      <trkpt lat="47.64572" lon="6.17929">
        <ele>224.2</ele>
        <time>2021-11-23T14:58:25Z</time>
      </trkpt>
      <trkpt lat="47.64576" lon="6.17923">
        <ele>224</ele>
        <time>2021-11-23T14:58:26Z</time>
      </trkpt>
      <trkpt lat="47.64581" lon="6.17918">
        <ele>223.9</ele>
        <time>2021-11-23T14:58:27Z</time>
      </trkpt>
      <trkpt lat="47.64586" lon="6.17912">
        <ele>223.7</ele>
        <time>2021-11-23T14:58:28Z</time>
      </trkpt>
      <trkpt lat="47.64591" lon="6.17907">
        <ele>223.4</ele>
        <time>2021-11-23T14:58:29Z</time>
      </trkpt>
      <trkpt lat="47.64596" lon="6.17901">
        <ele>223.1</ele>
        <time>2021-11-23T14:58:30Z</time>
      </trkpt>
      <trkpt lat="47.64601" lon="6.17896">
        <ele>223</ele>
        <time>2021-11-23T14:58:31Z</time>
      </trkpt>
      <trkpt lat="47.64606" lon="6.17893">
        <ele>223</ele>
        <time>2021-11-23T14:58:32Z</time>
      </trkpt>
      <trkpt lat="47.64611" lon="6.1789">
        <ele>223</ele>
        <time>2021-11-23T14:58:33Z</time>
      </trkpt>
      <trkpt lat="47.64617" lon="6.17889">
        <ele>223</ele>
        <time>2021-11-23T14:58:34Z</time>
      </trkpt>
      <trkpt lat="47.64622" lon="6.17889">
        <ele>223</ele>
        <time>2021-11-23T14:58:35Z</time>
      </trkpt>
      <trkpt lat="47.64627" lon="6.1789">
        <ele>223</ele>
        <time>2021-11-23T14:58:36Z</time>
      </trkpt>
      <trkpt lat="47.64632" lon="6.17892">
        <ele>223.1</ele>
        <time>2021-11-23T14:58:37Z</time>
      </trkpt>
      <trkpt lat="47.64636" lon="6.17894">
        <ele>223.2</ele>
        <time>2021-11-23T14:58:38Z</time>
      </trkpt>
      <trkpt lat="47.64641" lon="6.17896">
        <ele>223.3</ele>
        <time>2021-11-23T14:58:39Z</time>
      </trkpt>
      <trkpt lat="47.64648" lon="6.179">
        <ele>223.3</ele>
        <time>2021-11-23T14:58:41Z</time>
      </trkpt>
      <trkpt lat="47.64654" lon="6.17905">
        <ele>223.3</ele>
        <time>2021-11-23T14:58:43Z</time>
      </trkpt>
      <trkpt lat="47.64661" lon="6.17909">
        <ele>223.1</ele>
        <time>2021-11-23T14:58:45Z</time>
      </trkpt>
      <trkpt lat="47.64667" lon="6.17911">
        <ele>223</ele>
        <time>2021-11-23T14:58:47Z</time>
      </trkpt>
      <trkpt lat="47.64672" lon="6.17914">
        <ele>223</ele>
        <time>2021-11-23T14:58:51Z</time>
      </trkpt>
      <trkpt lat="47.64676" lon="6.17918">
        <ele>223.1</ele>
        <time>2021-11-23T14:58:53Z</time>
      </trkpt>
      <trkpt lat="47.6468" lon="6.17922">
        <ele>223.3</ele>
        <time>2021-11-23T14:58:54Z</time>
      </trkpt>
      <trkpt lat="47.64686" lon="6.17926">
        <ele>223.3</ele>
        <time>2021-11-23T14:58:56Z</time>
      </trkpt>
      <trkpt lat="47.64691" lon="6.17933">
        <ele>223.2</ele>
        <time>2021-11-23T14:58:58Z</time>
      </trkpt>
      <trkpt lat="47.64698" lon="6.17942">
        <ele>223</ele>
        <time>2021-11-23T14:59:00Z</time>
      </trkpt>
      <trkpt lat="47.64706" lon="6.17954">
        <ele>223.6</ele>
        <time>2021-11-23T14:59:03Z</time>
      </trkpt>
      <trkpt lat="47.64711" lon="6.17961">
        <ele>223.7</ele>
        <time>2021-11-23T14:59:05Z</time>
      </trkpt>
      <trkpt lat="47.64714" lon="6.17966">
        <ele>223.7</ele>
        <time>2021-11-23T14:59:07Z</time>
      </trkpt>
      <trkpt lat="47.64719" lon="6.17973">
        <ele>223.4</ele>
        <time>2021-11-23T14:59:09Z</time>
      </trkpt>
      <trkpt lat="47.64723" lon="6.17981">
        <ele>223.6</ele>
        <time>2021-11-23T14:59:11Z</time>
      </trkpt>
      <trkpt lat="47.64727" lon="6.17987">
        <ele>223.9</ele>
        <time>2021-11-23T14:59:13Z</time>
      </trkpt>
      <trkpt lat="47.64732" lon="6.17995">
        <ele>224.1</ele>
        <time>2021-11-23T14:59:15Z</time>
      </trkpt>
      <trkpt lat="47.64735" lon="6.18001">
        <ele>224.2</ele>
        <time>2021-11-23T14:59:16Z</time>
      </trkpt>
      <trkpt lat="47.6474" lon="6.18009">
        <ele>224.5</ele>
        <time>2021-11-23T14:59:19Z</time>
      </trkpt>
      <trkpt lat="47.64744" lon="6.18014">
        <ele>224.4</ele>
        <time>2021-11-23T14:59:20Z</time>
      </trkpt>
      <trkpt lat="47.64748" lon="6.1802">
        <ele>224.1</ele>
        <time>2021-11-23T14:59:22Z</time>
      </trkpt>
      <trkpt lat="47.64752" lon="6.18027">
        <ele>223.9</ele>
        <time>2021-11-23T14:59:23Z</time>
      </trkpt>
      <trkpt lat="47.6476" lon="6.18038">
        <ele>224.6</ele>
        <time>2021-11-23T14:59:27Z</time>
      </trkpt>
      <trkpt lat="47.64764" lon="6.18043">
        <ele>224.5</ele>
        <time>2021-11-23T14:59:28Z</time>
      </trkpt>
      <trkpt lat="47.64774" lon="6.18054">
        <ele>223.6</ele>
        <time>2021-11-23T14:59:32Z</time>
      </trkpt>
      <trkpt lat="47.64785" lon="6.18061">
        <ele>223.7</ele>
        <time>2021-11-23T14:59:32Z</time>
      </trkpt>
      <trkpt lat="47.64791" lon="6.18063">
        <ele>223.9</ele>
        <time>2021-11-23T14:59:37Z</time>
      </trkpt>
      <trkpt lat="47.64802" lon="6.18067">
        <ele>223.9</ele>
        <time>2021-11-23T14:59:40Z</time>
      </trkpt>
      <trkpt lat="47.64814" lon="6.1807">
        <ele>224.1</ele>
        <time>2021-11-23T14:59:43Z</time>
      </trkpt>
      <trkpt lat="47.6482" lon="6.18072">
        <ele>224.4</ele>
        <time>2021-11-23T14:59:45Z</time>
      </trkpt>
      <trkpt lat="47.64825" lon="6.18072">
        <ele>224.5</ele>
        <time>2021-11-23T14:59:47Z</time>
      </trkpt>
      <trkpt lat="47.64837" lon="6.18075">
        <ele>224.7</ele>
        <time>2021-11-23T14:59:48Z</time>
      </trkpt>
      <trkpt lat="47.64844" lon="6.18077">
        <ele>224.8</ele>
        <time>2021-11-23T14:59:54Z</time>
      </trkpt>
      <trkpt lat="47.64853" lon="6.1808">
        <ele>224.9</ele>
        <time>2021-11-23T14:59:59Z</time>
      </trkpt>
      <trkpt lat="47.6486" lon="6.18081">
        <ele>224.9</ele>
        <time>2021-11-23T15:00:01Z</time>
      </trkpt>
      <trkpt lat="47.64875" lon="6.18085">
        <ele>224.6</ele>
        <time>2021-11-23T15:00:02Z</time>
      </trkpt>
      <trkpt lat="47.64883" lon="6.18087">
        <ele>224.5</ele>
        <time>2021-11-23T15:00:07Z</time>
      </trkpt>
      <trkpt lat="47.64888" lon="6.18088">
        <ele>224.4</ele>
        <time>2021-11-23T15:00:08Z</time>
      </trkpt>
      <trkpt lat="47.64892" lon="6.18089">
        <ele>224.4</ele>
        <time>2021-11-23T15:00:09Z</time>
      </trkpt>
      <trkpt lat="47.64903" lon="6.18092">
        <ele>224.4</ele>
        <time>2021-11-23T15:00:12Z</time>
      </trkpt>
      <trkpt lat="47.64908" lon="6.18092">
        <ele>224.4</ele>
        <time>2021-11-23T15:00:13Z</time>
      </trkpt>
      <trkpt lat="47.64914" lon="6.18094">
        <ele>224.5</ele>
        <time>2021-11-23T15:00:14Z</time>
      </trkpt>
      <trkpt lat="47.64919" lon="6.18095">
        <ele>224.6</ele>
        <time>2021-11-23T15:00:16Z</time>
      </trkpt>
      <trkpt lat="47.64925" lon="6.18096">
        <ele>224.8</ele>
        <time>2021-11-23T15:00:17Z</time>
      </trkpt>
      <trkpt lat="47.6493" lon="6.18097">
        <ele>224.9</ele>
        <time>2021-11-23T15:00:19Z</time>
      </trkpt>
      <trkpt lat="47.64943" lon="6.18099">
        <ele>225.3</ele>
        <time>2021-11-23T15:00:22Z</time>
      </trkpt>
      <trkpt lat="47.64949" lon="6.181">
        <ele>225.6</ele>
        <time>2021-11-23T15:00:23Z</time>
      </trkpt>
      <trkpt lat="47.64956" lon="6.181">
        <ele>226</ele>
        <time>2021-11-23T15:00:25Z</time>
      </trkpt>
      <trkpt lat="47.64969" lon="6.18101">
        <ele>226.6</ele>
        <time>2021-11-23T15:00:29Z</time>
      </trkpt>
      <trkpt lat="47.64982" lon="6.18099">
        <ele>226.6</ele>
        <time>2021-11-23T15:00:32Z</time>
      </trkpt>
      <trkpt lat="47.64986" lon="6.18098">
        <ele>226.5</ele>
        <time>2021-11-23T15:00:33Z</time>
      </trkpt>
      <trkpt lat="47.64991" lon="6.18098">
        <ele>226.5</ele>
        <time>2021-11-23T15:00:34Z</time>
      </trkpt>
      <trkpt lat="47.65005" lon="6.18097">
        <ele>226.2</ele>
        <time>2021-11-23T15:00:37Z</time>
      </trkpt>
      <trkpt lat="47.65011" lon="6.18097">
        <ele>226</ele>
        <time>2021-11-23T15:00:39Z</time>
      </trkpt>
      <trkpt lat="47.65018" lon="6.18096">
        <ele>225.7</ele>
        <time>2021-11-23T15:00:40Z</time>
      </trkpt>
      <trkpt lat="47.65023" lon="6.18096">
        <ele>225.6</ele>
        <time>2021-11-23T15:00:42Z</time>
      </trkpt>
      <trkpt lat="47.65035" lon="6.18096">
        <ele>225.5</ele>
        <time>2021-11-23T15:00:45Z</time>
      </trkpt>
      <trkpt lat="47.65042" lon="6.18097">
        <ele>225.7</ele>
        <time>2021-11-23T15:00:47Z</time>
      </trkpt>
      <trkpt lat="47.65047" lon="6.18097">
        <ele>225.9</ele>
        <time>2021-11-23T15:00:48Z</time>
      </trkpt>
      <trkpt lat="47.65054" lon="6.18098">
        <ele>226.1</ele>
        <time>2021-11-23T15:00:50Z</time>
      </trkpt>
      <trkpt lat="47.65058" lon="6.18099">
        <ele>226</ele>
        <time>2021-11-23T15:00:51Z</time>
      </trkpt>
      <trkpt lat="47.65063" lon="6.181">
        <ele>225.9</ele>
        <time>2021-11-23T15:00:52Z</time>
      </trkpt>
      <trkpt lat="47.65069" lon="6.18101">
        <ele>225.6</ele>
        <time>2021-11-23T15:00:54Z</time>
      </trkpt>
      <trkpt lat="47.65074" lon="6.18102">
        <ele>225.3</ele>
        <time>2021-11-23T15:00:55Z</time>
      </trkpt>
      <trkpt lat="47.65079" lon="6.18103">
        <ele>225</ele>
        <time>2021-11-23T15:00:57Z</time>
      </trkpt>
      <trkpt lat="47.65085" lon="6.18104">
        <ele>224.8</ele>
        <time>2021-11-23T15:00:58Z</time>
      </trkpt>
      <trkpt lat="47.65097" lon="6.18105">
        <ele>225.1</ele>
        <time>2021-11-23T15:01:02Z</time>
      </trkpt>
      <trkpt lat="47.65102" lon="6.18104">
        <ele>225.3</ele>
        <time>2021-11-23T15:01:03Z</time>
      </trkpt>
      <trkpt lat="47.65107" lon="6.18104">
        <ele>225.4</ele>
        <time>2021-11-23T15:01:04Z</time>
      </trkpt>
      <trkpt lat="47.6512" lon="6.18099">
        <ele>225.7</ele>
        <time>2021-11-23T15:01:08Z</time>
      </trkpt>
      <trkpt lat="47.65132" lon="6.18094">
        <ele>225.7</ele>
        <time>2021-11-23T15:01:11Z</time>
      </trkpt>
      <trkpt lat="47.65138" lon="6.1809">
        <ele>225.3</ele>
        <time>2021-11-23T15:01:13Z</time>
      </trkpt>
      <trkpt lat="47.65142" lon="6.18088">
        <ele>225.3</ele>
        <time>2021-11-23T15:01:14Z</time>
      </trkpt>
      <trkpt lat="47.65147" lon="6.18083">
        <ele>225.2</ele>
        <time>2021-11-23T15:01:16Z</time>
      </trkpt>
      <trkpt lat="47.65153" lon="6.18075">
        <ele>225.4</ele>
        <time>2021-11-23T15:01:18Z</time>
      </trkpt>
      <trkpt lat="47.65161" lon="6.18064">
        <ele>225.5</ele>
        <time>2021-11-23T15:01:20Z</time>
      </trkpt>
      <trkpt lat="47.65165" lon="6.18059">
        <ele>225.2</ele>
        <time>2021-11-23T15:01:22Z</time>
      </trkpt>
      <trkpt lat="47.65175" lon="6.18044">
        <ele>225.5</ele>
        <time>2021-11-23T15:01:26Z</time>
      </trkpt>
      <trkpt lat="47.65178" lon="6.18039">
        <ele>225.5</ele>
        <time>2021-11-23T15:01:27Z</time>
      </trkpt>
      <trkpt lat="47.65181" lon="6.1803">
        <ele>225.3</ele>
        <time>2021-11-23T15:01:27Z</time>
      </trkpt>
      <trkpt lat="47.65185" lon="6.18025">
        <ele>225.3</ele>
        <time>2021-11-23T15:01:29Z</time>
      </trkpt>
      <trkpt lat="47.65191" lon="6.18017">
        <ele>225.4</ele>
        <time>2021-11-23T15:01:32Z</time>
      </trkpt>
      <trkpt lat="47.65195" lon="6.18011">
        <ele>225.5</ele>
        <time>2021-11-23T15:01:34Z</time>
      </trkpt>
      <trkpt lat="47.65199" lon="6.18006">
        <ele>225.6</ele>
        <time>2021-11-23T15:01:39Z</time>
      </trkpt>
      <trkpt lat="47.65204" lon="6.18003">
        <ele>225.8</ele>
        <time>2021-11-23T15:01:41Z</time>
      </trkpt>
      <trkpt lat="47.65208" lon="6.17999">
        <ele>225.9</ele>
        <time>2021-11-23T15:01:43Z</time>
      </trkpt>
      <trkpt lat="47.65213" lon="6.17994">
        <ele>226.1</ele>
        <time>2021-11-23T15:01:45Z</time>
      </trkpt>
      <trkpt lat="47.65217" lon="6.1799">
        <ele>226.3</ele>
        <time>2021-11-23T15:01:47Z</time>
      </trkpt>
      <trkpt lat="47.65221" lon="6.17986">
        <ele>226.5</ele>
        <time>2021-11-23T15:01:49Z</time>
      </trkpt>
      <trkpt lat="47.6523" lon="6.17982">
        <ele>226.3</ele>
        <time>2021-11-23T15:01:52Z</time>
      </trkpt>
      <trkpt lat="47.65237" lon="6.1798">
        <ele>226.3</ele>
        <time>2021-11-23T15:01:54Z</time>
      </trkpt>
      <trkpt lat="47.65248" lon="6.17979">
        <ele>226.2</ele>
        <time>2021-11-23T15:01:57Z</time>
      </trkpt>
      <trkpt lat="47.65255" lon="6.17981">
        <ele>226</ele>
        <time>2021-11-23T15:01:59Z</time>
      </trkpt>
      <trkpt lat="47.65262" lon="6.17986">
        <ele>225.9</ele>
        <time>2021-11-23T15:02:01Z</time>
      </trkpt>
      <trkpt lat="47.65268" lon="6.17992">
        <ele>225.9</ele>
        <time>2021-11-23T15:02:03Z</time>
      </trkpt>
      <trkpt lat="47.65274" lon="6.18001">
        <ele>226.2</ele>
        <time>2021-11-23T15:02:05Z</time>
      </trkpt>
      <trkpt lat="47.65277" lon="6.18007">
        <ele>226</ele>
        <time>2021-11-23T15:02:06Z</time>
      </trkpt>
      <trkpt lat="47.65283" lon="6.18021">
        <ele>225.8</ele>
        <time>2021-11-23T15:02:09Z</time>
      </trkpt>
      <trkpt lat="47.65285" lon="6.18028">
        <ele>225.8</ele>
        <time>2021-11-23T15:02:10Z</time>
      </trkpt>
      <trkpt lat="47.65286" lon="6.1804">
        <ele>226</ele>
        <time>2021-11-23T15:02:12Z</time>
      </trkpt>
      <trkpt lat="47.65287" lon="6.18048">
        <ele>226.2</ele>
        <time>2021-11-23T15:02:13Z</time>
      </trkpt>
      <trkpt lat="47.65287" lon="6.18058">
        <ele>226.4</ele>
        <time>2021-11-23T15:02:15Z</time>
      </trkpt>
      <trkpt lat="47.65289" lon="6.1807">
        <ele>226.5</ele>
        <time>2021-11-23T15:02:17Z</time>
      </trkpt>
      <trkpt lat="47.6529" lon="6.18077">
        <ele>226.5</ele>
        <time>2021-11-23T15:02:18Z</time>
      </trkpt>
      <trkpt lat="47.65292" lon="6.18089">
        <ele>226.5</ele>
        <time>2021-11-23T15:02:20Z</time>
      </trkpt>
      <trkpt lat="47.65296" lon="6.18107">
        <ele>226.3</ele>
        <time>2021-11-23T15:02:21Z</time>
      </trkpt>
      <trkpt lat="47.65299" lon="6.18116">
        <ele>226.3</ele>
        <time>2021-11-23T15:02:25Z</time>
      </trkpt>
      <trkpt lat="47.65304" lon="6.18134">
        <ele>226.1</ele>
        <time>2021-11-23T15:02:28Z</time>
      </trkpt>
      <trkpt lat="47.65308" lon="6.18143">
        <ele>226</ele>
        <time>2021-11-23T15:02:30Z</time>
      </trkpt>
      <trkpt lat="47.65311" lon="6.18149">
        <ele>226.1</ele>
        <time>2021-11-23T15:02:31Z</time>
      </trkpt>
      <trkpt lat="47.65315" lon="6.18155">
        <ele>226.1</ele>
        <time>2021-11-23T15:02:32Z</time>
      </trkpt>
      <trkpt lat="47.65319" lon="6.18161">
        <ele>225.9</ele>
        <time>2021-11-23T15:02:34Z</time>
      </trkpt>
      <trkpt lat="47.65323" lon="6.18167">
        <ele>225.7</ele>
        <time>2021-11-23T15:02:36Z</time>
      </trkpt>
      <trkpt lat="47.65333" lon="6.18181">
        <ele>226.1</ele>
        <time>2021-11-23T15:02:39Z</time>
      </trkpt>
      <trkpt lat="47.65337" lon="6.18186">
        <ele>226.2</ele>
        <time>2021-11-23T15:02:40Z</time>
      </trkpt>
      <trkpt lat="47.65342" lon="6.1819">
        <ele>226.1</ele>
        <time>2021-11-23T15:02:42Z</time>
      </trkpt>
      <trkpt lat="47.65349" lon="6.18198">
        <ele>226.1</ele>
        <time>2021-11-23T15:02:44Z</time>
      </trkpt>
      <trkpt lat="47.65353" lon="6.18202">
        <ele>226.1</ele>
        <time>2021-11-23T15:02:45Z</time>
      </trkpt>
      <trkpt lat="47.65358" lon="6.18207">
        <ele>226.1</ele>
        <time>2021-11-23T15:02:47Z</time>
      </trkpt>
      <trkpt lat="47.65364" lon="6.18212">
        <ele>226.1</ele>
        <time>2021-11-23T15:02:49Z</time>
      </trkpt>
      <trkpt lat="47.6537" lon="6.18218">
        <ele>226.2</ele>
        <time>2021-11-23T15:02:51Z</time>
      </trkpt>
      <trkpt lat="47.65374" lon="6.18222">
        <ele>226</ele>
        <time>2021-11-23T15:02:52Z</time>
      </trkpt>
      <trkpt lat="47.6538" lon="6.18226">
        <ele>226.2</ele>
        <time>2021-11-23T15:02:54Z</time>
      </trkpt>
      <trkpt lat="47.65385" lon="6.1823">
        <ele>226.4</ele>
        <time>2021-11-23T15:02:55Z</time>
      </trkpt>
      <trkpt lat="47.6539" lon="6.18235">
        <ele>226.7</ele>
        <time>2021-11-23T15:02:57Z</time>
      </trkpt>
      <trkpt lat="47.65396" lon="6.18239">
        <ele>227.1</ele>
        <time>2021-11-23T15:02:59Z</time>
      </trkpt>
      <trkpt lat="47.654" lon="6.18242">
        <ele>227.3</ele>
        <time>2021-11-23T15:03:00Z</time>
      </trkpt>
      <trkpt lat="47.65413" lon="6.1825">
        <ele>227.3</ele>
        <time>2021-11-23T15:03:02Z</time>
      </trkpt>
      <trkpt lat="47.65417" lon="6.18253">
        <ele>227.4</ele>
        <time>2021-11-23T15:03:06Z</time>
      </trkpt>
      <trkpt lat="47.65422" lon="6.18255">
        <ele>227.7</ele>
        <time>2021-11-23T15:03:07Z</time>
      </trkpt>
      <trkpt lat="47.65428" lon="6.18257">
        <ele>228</ele>
        <time>2021-11-23T15:03:09Z</time>
      </trkpt>
      <trkpt lat="47.65434" lon="6.18258">
        <ele>228.2</ele>
        <time>2021-11-23T15:03:10Z</time>
      </trkpt>
      <trkpt lat="47.6544" lon="6.1826">
        <ele>228.5</ele>
        <time>2021-11-23T15:03:15Z</time>
      </trkpt>
      <trkpt lat="47.65447" lon="6.18264">
        <ele>229.1</ele>
        <time>2021-11-23T15:03:16Z</time>
      </trkpt>
      <trkpt lat="47.65451" lon="6.18263">
        <ele>229.2</ele>
        <time>2021-11-23T15:03:18Z</time>
      </trkpt>
      <trkpt lat="47.65456" lon="6.18263">
        <ele>229.3</ele>
        <time>2021-11-23T15:03:20Z</time>
      </trkpt>
      <trkpt lat="47.6546" lon="6.18266">
        <ele>229.9</ele>
        <time>2021-11-23T15:03:22Z</time>
      </trkpt>
      <trkpt lat="47.65465" lon="6.18265">
        <ele>229.9</ele>
        <time>2021-11-23T15:03:27Z</time>
      </trkpt>
      <trkpt lat="47.65471" lon="6.18265">
        <ele>230.2</ele>
        <time>2021-11-23T15:03:28Z</time>
      </trkpt>
      <trkpt lat="47.65475" lon="6.18268">
        <ele>230.8</ele>
        <time>2021-11-23T15:03:33Z</time>
      </trkpt>
      <trkpt lat="47.65482" lon="6.18266">
        <ele>231.1</ele>
        <time>2021-11-23T15:03:36Z</time>
      </trkpt>
      <trkpt lat="47.65488" lon="6.18265">
        <ele>231.6</ele>
        <time>2021-11-23T15:03:37Z</time>
      </trkpt>
      <trkpt lat="47.65494" lon="6.18264">
        <ele>232</ele>
        <time>2021-11-23T15:03:40Z</time>
      </trkpt>
      <trkpt lat="47.655" lon="6.18262">
        <ele>232.3</ele>
        <time>2021-11-23T15:03:45Z</time>
      </trkpt>
      <trkpt lat="47.65505" lon="6.1826">
        <ele>232.4</ele>
        <time>2021-11-23T15:03:47Z</time>
      </trkpt>
      <trkpt lat="47.65514" lon="6.18255">
        <ele>232.6</ele>
        <time>2021-11-23T15:03:51Z</time>
      </trkpt>
      <trkpt lat="47.65526" lon="6.1825">
        <ele>232.9</ele>
        <time>2021-11-23T15:03:56Z</time>
      </trkpt>
      <trkpt lat="47.65531" lon="6.18248">
        <ele>233</ele>
        <time>2021-11-23T15:03:58Z</time>
      </trkpt>
      <trkpt lat="47.65542" lon="6.18243">
        <ele>233.2</ele>
        <time>2021-11-23T15:04:01Z</time>
      </trkpt>
      <trkpt lat="47.65546" lon="6.18241">
        <ele>233.5</ele>
        <time>2021-11-23T15:04:03Z</time>
      </trkpt>
      <trkpt lat="47.65551" lon="6.18237">
        <ele>233.6</ele>
        <time>2021-11-23T15:04:08Z</time>
      </trkpt>
      <trkpt lat="47.65561" lon="6.18229">
        <ele>233.8</ele>
        <time>2021-11-23T15:04:13Z</time>
      </trkpt>
      <trkpt lat="47.65571" lon="6.1822">
        <ele>233.4</ele>
        <time>2021-11-23T15:04:15Z</time>
      </trkpt>
      <trkpt lat="47.65575" lon="6.18216">
        <ele>233.3</ele>
        <time>2021-11-23T15:04:19Z</time>
      </trkpt>
      <trkpt lat="47.65578" lon="6.1821">
        <ele>233.2</ele>
        <time>2021-11-23T15:04:20Z</time>
      </trkpt>
      <trkpt lat="47.65587" lon="6.182">
        <ele>233.4</ele>
        <time>2021-11-23T15:04:23Z</time>
      </trkpt>
      <trkpt lat="47.65596" lon="6.18184">
        <ele>232.2</ele>
        <time>2021-11-23T15:04:27Z</time>
      </trkpt>
      <trkpt lat="47.656" lon="6.1818">
        <ele>231.9</ele>
        <time>2021-11-23T15:04:28Z</time>
      </trkpt>
      <trkpt lat="47.65606" lon="6.18174">
        <ele>231.4</ele>
        <time>2021-11-23T15:04:30Z</time>
      </trkpt>
      <trkpt lat="47.65618" lon="6.18167">
        <ele>231.8</ele>
        <time>2021-11-23T15:04:32Z</time>
      </trkpt>
      <trkpt lat="47.65624" lon="6.18167">
        <ele>232.4</ele>
        <time>2021-11-23T15:04:33Z</time>
      </trkpt>
      <trkpt lat="47.65629" lon="6.18168">
        <ele>233</ele>
        <time>2021-11-23T15:04:34Z</time>
      </trkpt>
      <trkpt lat="47.65644" lon="6.18166">
        <ele>234.4</ele>
        <time>2021-11-23T15:04:36Z</time>
      </trkpt>
      <trkpt lat="47.65648" lon="6.18163">
        <ele>234.6</ele>
        <time>2021-11-23T15:04:40Z</time>
      </trkpt>
      <trkpt lat="47.65653" lon="6.18159">
        <ele>234.7</ele>
        <time>2021-11-23T15:04:41Z</time>
      </trkpt>
      <trkpt lat="47.65658" lon="6.18154">
        <ele>234.7</ele>
        <time>2021-11-23T15:04:46Z</time>
      </trkpt>
      <trkpt lat="47.65667" lon="6.18146">
        <ele>234.9</ele>
        <time>2021-11-23T15:04:50Z</time>
      </trkpt>
      <trkpt lat="47.65672" lon="6.1814">
        <ele>234.7</ele>
        <time>2021-11-23T15:04:51Z</time>
      </trkpt>
      <trkpt lat="47.65677" lon="6.18136">
        <ele>234.9</ele>
        <time>2021-11-23T15:04:56Z</time>
      </trkpt>
      <trkpt lat="47.65684" lon="6.18127">
        <ele>235</ele>
        <time>2021-11-23T15:05:00Z</time>
      </trkpt>
      <trkpt lat="47.65687" lon="6.18119">
        <ele>234.8</ele>
        <time>2021-11-23T15:05:02Z</time>
      </trkpt>
      <trkpt lat="47.65694" lon="6.18103">
        <ele>234.6</ele>
        <time>2021-11-23T15:05:06Z</time>
      </trkpt>
      <trkpt lat="47.65698" lon="6.18096">
        <ele>234.9</ele>
        <time>2021-11-23T15:05:08Z</time>
      </trkpt>
      <trkpt lat="47.65706" lon="6.18081">
        <ele>235</ele>
        <time>2021-11-23T15:05:10Z</time>
      </trkpt>
      <trkpt lat="47.6571" lon="6.18074">
        <ele>235.1</ele>
        <time>2021-11-23T15:05:15Z</time>
      </trkpt>
      <trkpt lat="47.65714" lon="6.18069">
        <ele>235.1</ele>
        <time>2021-11-23T15:05:17Z</time>
      </trkpt>
      <trkpt lat="47.65719" lon="6.18065">
        <ele>235.3</ele>
        <time>2021-11-23T15:05:19Z</time>
      </trkpt>
      <trkpt lat="47.65723" lon="6.18061">
        <ele>235.5</ele>
        <time>2021-11-23T15:05:21Z</time>
      </trkpt>
      <trkpt lat="47.65729" lon="6.18055">
        <ele>236.2</ele>
        <time>2021-11-23T15:05:24Z</time>
      </trkpt>
      <trkpt lat="47.65735" lon="6.18052">
        <ele>236.9</ele>
        <time>2021-11-23T15:05:27Z</time>
      </trkpt>
      <trkpt lat="47.6574" lon="6.18048">
        <ele>237.4</ele>
        <time>2021-11-23T15:05:28Z</time>
      </trkpt>
      <trkpt lat="47.65745" lon="6.18046">
        <ele>237.9</ele>
        <time>2021-11-23T15:05:31Z</time>
      </trkpt>
      <trkpt lat="47.6575" lon="6.18042">
        <ele>238.1</ele>
        <time>2021-11-23T15:05:36Z</time>
      </trkpt>
      <trkpt lat="47.65755" lon="6.18039">
        <ele>238.4</ele>
        <time>2021-11-23T15:05:37Z</time>
      </trkpt>
      <trkpt lat="47.6576" lon="6.18038">
        <ele>238.9</ele>
        <time>2021-11-23T15:05:40Z</time>
      </trkpt>
      <trkpt lat="47.65766" lon="6.18037">
        <ele>239.6</ele>
        <time>2021-11-23T15:05:43Z</time>
      </trkpt>
      <trkpt lat="47.65771" lon="6.18035">
        <ele>240</ele>
        <time>2021-11-23T15:05:48Z</time>
      </trkpt>
      <trkpt lat="47.6578" lon="6.18027">
        <ele>240.1</ele>
        <time>2021-11-23T15:05:51Z</time>
      </trkpt>
      <trkpt lat="47.65785" lon="6.18023">
        <ele>240.2</ele>
        <time>2021-11-23T15:05:54Z</time>
      </trkpt>
      <trkpt lat="47.65789" lon="6.18019">
        <ele>240.1</ele>
        <time>2021-11-23T15:05:57Z</time>
      </trkpt>
      <trkpt lat="47.65795" lon="6.18015">
        <ele>240.1</ele>
        <time>2021-11-23T15:06:02Z</time>
      </trkpt>
      <trkpt lat="47.65804" lon="6.18006">
        <ele>239.7</ele>
        <time>2021-11-23T15:06:06Z</time>
      </trkpt>
      <trkpt lat="47.65813" lon="6.17998">
        <ele>239.1</ele>
        <time>2021-11-23T15:06:08Z</time>
      </trkpt>
      <trkpt lat="47.65825" lon="6.17988">
        <ele>238.4</ele>
        <time>2021-11-23T15:06:12Z</time>
      </trkpt>
      <trkpt lat="47.65835" lon="6.1798">
        <ele>237.8</ele>
        <time>2021-11-23T15:06:14Z</time>
      </trkpt>
      <trkpt lat="47.6584" lon="6.17975">
        <ele>237.3</ele>
        <time>2021-11-23T15:06:15Z</time>
      </trkpt>
      <trkpt lat="47.65845" lon="6.17971">
        <ele>236.9</ele>
        <time>2021-11-23T15:06:16Z</time>
      </trkpt>
      <trkpt lat="47.65851" lon="6.17967">
        <ele>236.5</ele>
        <time>2021-11-23T15:06:17Z</time>
      </trkpt>
      <trkpt lat="47.65857" lon="6.17963">
        <ele>236</ele>
        <time>2021-11-23T15:06:19Z</time>
      </trkpt>
      <trkpt lat="47.65863" lon="6.1796">
        <ele>235.7</ele>
        <time>2021-11-23T15:06:20Z</time>
      </trkpt>
      <trkpt lat="47.65886" lon="6.17955">
        <ele>234.8</ele>
        <time>2021-11-23T15:06:21Z</time>
      </trkpt>
      <trkpt lat="47.65891" lon="6.17955">
        <ele>234.7</ele>
        <time>2021-11-23T15:06:22Z</time>
      </trkpt>
      <trkpt lat="47.65897" lon="6.17954">
        <ele>234.6</ele>
        <time>2021-11-23T15:06:23Z</time>
      </trkpt>
      <trkpt lat="47.65903" lon="6.17953">
        <ele>234.5</ele>
        <time>2021-11-23T15:06:24Z</time>
      </trkpt>
      <trkpt lat="47.65908" lon="6.17952">
        <ele>234.4</ele>
        <time>2021-11-23T15:06:25Z</time>
      </trkpt>
      <trkpt lat="47.65914" lon="6.17951">
        <ele>234.3</ele>
        <time>2021-11-23T15:06:26Z</time>
      </trkpt>
      <trkpt lat="47.6592" lon="6.17951">
        <ele>234.1</ele>
        <time>2021-11-23T15:06:27Z</time>
      </trkpt>
      <trkpt lat="47.65926" lon="6.17951">
        <ele>233.7</ele>
        <time>2021-11-23T15:06:28Z</time>
      </trkpt>
      <trkpt lat="47.65933" lon="6.1795">
        <ele>233.3</ele>
        <time>2021-11-23T15:06:29Z</time>
      </trkpt>
      <trkpt lat="47.6594" lon="6.1795">
        <ele>232.9</ele>
        <time>2021-11-23T15:06:30Z</time>
      </trkpt>
      <trkpt lat="47.65947" lon="6.1795">
        <ele>232.6</ele>
        <time>2021-11-23T15:06:31Z</time>
      </trkpt>
      <trkpt lat="47.65953" lon="6.17949">
        <ele>232.5</ele>
        <time>2021-11-23T15:06:32Z</time>
      </trkpt>
      <trkpt lat="47.6596" lon="6.17949">
        <ele>232.4</ele>
        <time>2021-11-23T15:06:33Z</time>
      </trkpt>
      <trkpt lat="47.65967" lon="6.17949">
        <ele>232.4</ele>
        <time>2021-11-23T15:06:34Z</time>
      </trkpt>
      <trkpt lat="47.65974" lon="6.17949">
        <ele>232.3</ele>
        <time>2021-11-23T15:06:35Z</time>
      </trkpt>
      <trkpt lat="47.6598" lon="6.1795">
        <ele>232.2</ele>
        <time>2021-11-23T15:06:36Z</time>
      </trkpt>
      <trkpt lat="47.65986" lon="6.1795">
        <ele>232.1</ele>
        <time>2021-11-23T15:06:37Z</time>
      </trkpt>
      <trkpt lat="47.65993" lon="6.1795">
        <ele>232</ele>
        <time>2021-11-23T15:06:38Z</time>
      </trkpt>
      <trkpt lat="47.65999" lon="6.1795">
        <ele>231.9</ele>
        <time>2021-11-23T15:06:39Z</time>
      </trkpt>
      <trkpt lat="47.66005" lon="6.17951">
        <ele>231.8</ele>
        <time>2021-11-23T15:06:40Z</time>
      </trkpt>
      <trkpt lat="47.66011" lon="6.17951">
        <ele>231.6</ele>
        <time>2021-11-23T15:06:41Z</time>
      </trkpt>
      <trkpt lat="47.66017" lon="6.17952">
        <ele>231.4</ele>
        <time>2021-11-23T15:06:42Z</time>
      </trkpt>
      <trkpt lat="47.66023" lon="6.17952">
        <ele>231.3</ele>
        <time>2021-11-23T15:06:43Z</time>
      </trkpt>
      <trkpt lat="47.66029" lon="6.17952">
        <ele>231.1</ele>
        <time>2021-11-23T15:06:44Z</time>
      </trkpt>
      <trkpt lat="47.66034" lon="6.17953">
        <ele>231.2</ele>
        <time>2021-11-23T15:06:45Z</time>
      </trkpt>
      <trkpt lat="47.6604" lon="6.17953">
        <ele>231.2</ele>
        <time>2021-11-23T15:06:46Z</time>
      </trkpt>
      <trkpt lat="47.66045" lon="6.17953">
        <ele>231.2</ele>
        <time>2021-11-23T15:06:47Z</time>
      </trkpt>
      <trkpt lat="47.6605" lon="6.17953">
        <ele>231.3</ele>
        <time>2021-11-23T15:06:48Z</time>
      </trkpt>
      <trkpt lat="47.66055" lon="6.17953">
        <ele>231.3</ele>
        <time>2021-11-23T15:06:49Z</time>
      </trkpt>
      <trkpt lat="47.66059" lon="6.17953">
        <ele>231.3</ele>
        <time>2021-11-23T15:06:50Z</time>
      </trkpt>
      <trkpt lat="47.66068" lon="6.17953">
        <ele>231.2</ele>
        <time>2021-11-23T15:06:52Z</time>
      </trkpt>
      <trkpt lat="47.66075" lon="6.17953">
        <ele>231.2</ele>
        <time>2021-11-23T15:06:54Z</time>
      </trkpt>
      <trkpt lat="47.66082" lon="6.17953">
        <ele>231.2</ele>
        <time>2021-11-23T15:06:56Z</time>
      </trkpt>
      <trkpt lat="47.6609" lon="6.17953">
        <ele>231.5</ele>
        <time>2021-11-23T15:06:58Z</time>
      </trkpt>
      <trkpt lat="47.66102" lon="6.17949">
        <ele>231.3</ele>
        <time>2021-11-23T15:07:02Z</time>
      </trkpt>
      <trkpt lat="47.66107" lon="6.1795">
        <ele>231.7</ele>
        <time>2021-11-23T15:07:05Z</time>
      </trkpt>
      <trkpt lat="47.66119" lon="6.17951">
        <ele>232</ele>
        <time>2021-11-23T15:07:07Z</time>
      </trkpt>
      <trkpt lat="47.66125" lon="6.17951">
        <ele>232</ele>
        <time>2021-11-23T15:07:09Z</time>
      </trkpt>
      <trkpt lat="47.6613" lon="6.17951">
        <ele>232</ele>
        <time>2021-11-23T15:07:13Z</time>
      </trkpt>
      <trkpt lat="47.66142" lon="6.17952">
        <ele>232.1</ele>
        <time>2021-11-23T15:07:17Z</time>
      </trkpt>
      <trkpt lat="47.66154" lon="6.17952">
        <ele>232</ele>
        <time>2021-11-23T15:07:21Z</time>
      </trkpt>
      <trkpt lat="47.6616" lon="6.17951">
        <ele>232</ele>
        <time>2021-11-23T15:07:23Z</time>
      </trkpt>
      <trkpt lat="47.66165" lon="6.17952">
        <ele>232.1</ele>
        <time>2021-11-23T15:07:25Z</time>
      </trkpt>
      <trkpt lat="47.66172" lon="6.17952">
        <ele>232.1</ele>
        <time>2021-11-23T15:07:27Z</time>
      </trkpt>
      <trkpt lat="47.66176" lon="6.17953">
        <ele>232.1</ele>
        <time>2021-11-23T15:07:28Z</time>
      </trkpt>
      <trkpt lat="47.66182" lon="6.17954">
        <ele>232.1</ele>
        <time>2021-11-23T15:07:30Z</time>
      </trkpt>
      <trkpt lat="47.66189" lon="6.17955">
        <ele>232.2</ele>
        <time>2021-11-23T15:07:32Z</time>
      </trkpt>
      <trkpt lat="47.66194" lon="6.17955">
        <ele>232.2</ele>
        <time>2021-11-23T15:07:33Z</time>
      </trkpt>
      <trkpt lat="47.662" lon="6.17957">
        <ele>232.1</ele>
        <time>2021-11-23T15:07:35Z</time>
      </trkpt>
      <trkpt lat="47.66207" lon="6.17959">
        <ele>232.1</ele>
        <time>2021-11-23T15:07:38Z</time>
      </trkpt>
      <trkpt lat="47.66214" lon="6.1796">
        <ele>232</ele>
        <time>2021-11-23T15:07:40Z</time>
      </trkpt>
      <trkpt lat="47.6622" lon="6.17961">
        <ele>231.9</ele>
        <time>2021-11-23T15:07:42Z</time>
      </trkpt>
      <trkpt lat="47.66226" lon="6.17963">
        <ele>231.8</ele>
        <time>2021-11-23T15:07:43Z</time>
      </trkpt>
      <trkpt lat="47.66231" lon="6.17964">
        <ele>231.6</ele>
        <time>2021-11-23T15:07:45Z</time>
      </trkpt>
      <trkpt lat="47.66244" lon="6.17967">
        <ele>231.1</ele>
        <time>2021-11-23T15:07:46Z</time>
      </trkpt>
      <trkpt lat="47.6625" lon="6.17969">
        <ele>230.7</ele>
        <time>2021-11-23T15:07:50Z</time>
      </trkpt>
      <trkpt lat="47.66262" lon="6.17971">
        <ele>230.5</ele>
        <time>2021-11-23T15:07:52Z</time>
      </trkpt>
      <trkpt lat="47.66267" lon="6.17972">
        <ele>230.4</ele>
        <time>2021-11-23T15:07:54Z</time>
      </trkpt>
      <trkpt lat="47.66272" lon="6.17973">
        <ele>230.2</ele>
        <time>2021-11-23T15:07:55Z</time>
      </trkpt>
      <trkpt lat="47.66288" lon="6.17973">
        <ele>229.6</ele>
        <time>2021-11-23T15:07:56Z</time>
      </trkpt>
      <trkpt lat="47.66293" lon="6.17973">
        <ele>229.5</ele>
        <time>2021-11-23T15:07:57Z</time>
      </trkpt>
      <trkpt lat="47.66298" lon="6.17973">
        <ele>229.3</ele>
        <time>2021-11-23T15:07:58Z</time>
      </trkpt>
      <trkpt lat="47.66303" lon="6.17973">
        <ele>229.1</ele>
        <time>2021-11-23T15:07:59Z</time>
      </trkpt>
      <trkpt lat="47.66308" lon="6.17973">
        <ele>229</ele>
        <time>2021-11-23T15:08:00Z</time>
      </trkpt>
      <trkpt lat="47.66313" lon="6.17974">
        <ele>229</ele>
        <time>2021-11-23T15:08:01Z</time>
      </trkpt>
      <trkpt lat="47.66317" lon="6.17974">
        <ele>229</ele>
        <time>2021-11-23T15:08:02Z</time>
      </trkpt>
      <trkpt lat="47.66322" lon="6.17977">
        <ele>229.1</ele>
        <time>2021-11-23T15:08:05Z</time>
      </trkpt>
      <trkpt lat="47.66326" lon="6.17974">
        <ele>229</ele>
        <time>2021-11-23T15:08:07Z</time>
      </trkpt>
      <trkpt lat="47.6633" lon="6.17966">
        <ele>229</ele>
        <time>2021-11-23T15:08:08Z</time>
      </trkpt>
      <trkpt lat="47.66334" lon="6.17947">
        <ele>229</ele>
        <time>2021-11-23T15:08:11Z</time>
      </trkpt>
      <trkpt lat="47.66335" lon="6.17927">
        <ele>229</ele>
        <time>2021-11-23T15:08:14Z</time>
      </trkpt>
      <trkpt lat="47.66336" lon="6.1791">
        <ele>229.1</ele>
        <time>2021-11-23T15:08:17Z</time>
      </trkpt>
      <trkpt lat="47.66336" lon="6.17902">
        <ele>229</ele>
        <time>2021-11-23T15:08:18Z</time>
      </trkpt>
      <trkpt lat="47.66336" lon="6.17893">
        <ele>229</ele>
        <time>2021-11-23T15:08:19Z</time>
      </trkpt>
      <trkpt lat="47.66337" lon="6.17882">
        <ele>229</ele>
        <time>2021-11-23T15:08:21Z</time>
      </trkpt>
      <trkpt lat="47.66338" lon="6.17866">
        <ele>229</ele>
        <time>2021-11-23T15:08:23Z</time>
      </trkpt>
      <trkpt lat="47.66339" lon="6.17843">
        <ele>228.5</ele>
        <time>2021-11-23T15:08:24Z</time>
      </trkpt>
      <trkpt lat="47.66339" lon="6.17836">
        <ele>228.3</ele>
        <time>2021-11-23T15:08:25Z</time>
      </trkpt>
      <trkpt lat="47.66339" lon="6.17829">
        <ele>228.2</ele>
        <time>2021-11-23T15:08:26Z</time>
      </trkpt>
      <trkpt lat="47.6634" lon="6.17822">
        <ele>228.2</ele>
        <time>2021-11-23T15:08:27Z</time>
      </trkpt>
      <trkpt lat="47.6634" lon="6.17815">
        <ele>228.2</ele>
        <time>2021-11-23T15:08:28Z</time>
      </trkpt>
      <trkpt lat="47.66341" lon="6.17808">
        <ele>228.3</ele>
        <time>2021-11-23T15:08:29Z</time>
      </trkpt>
      <trkpt lat="47.66341" lon="6.17801">
        <ele>228.2</ele>
        <time>2021-11-23T15:08:30Z</time>
      </trkpt>
      <trkpt lat="47.66343" lon="6.17788">
        <ele>228.1</ele>
        <time>2021-11-23T15:08:32Z</time>
      </trkpt>
      <trkpt lat="47.66344" lon="6.17775">
        <ele>228</ele>
        <time>2021-11-23T15:08:34Z</time>
      </trkpt>
      <trkpt lat="47.66345" lon="6.17764">
        <ele>228</ele>
        <time>2021-11-23T15:08:36Z</time>
      </trkpt>
      <trkpt lat="47.66347" lon="6.17753">
        <ele>228</ele>
        <time>2021-11-23T15:08:38Z</time>
      </trkpt>
      <trkpt lat="47.66349" lon="6.17741">
        <ele>228</ele>
        <time>2021-11-23T15:08:40Z</time>
      </trkpt>
      <trkpt lat="47.66352" lon="6.17735">
        <ele>228</ele>
        <time>2021-11-23T15:08:43Z</time>
      </trkpt>
      <trkpt lat="47.66354" lon="6.17725">
        <ele>228</ele>
        <time>2021-11-23T15:08:45Z</time>
      </trkpt>
      <trkpt lat="47.66358" lon="6.17705">
        <ele>228</ele>
        <time>2021-11-23T15:08:46Z</time>
      </trkpt>
      <trkpt lat="47.6636" lon="6.17697">
        <ele>228</ele>
        <time>2021-11-23T15:08:49Z</time>
      </trkpt>
      <trkpt lat="47.66363" lon="6.17689">
        <ele>228</ele>
        <time>2021-11-23T15:08:51Z</time>
      </trkpt>
      <trkpt lat="47.66366" lon="6.17681">
        <ele>228</ele>
        <time>2021-11-23T15:08:53Z</time>
      </trkpt>
      <trkpt lat="47.66369" lon="6.17675">
        <ele>228</ele>
        <time>2021-11-23T15:08:54Z</time>
      </trkpt>
      <trkpt lat="47.66373" lon="6.17668">
        <ele>228</ele>
        <time>2021-11-23T15:08:55Z</time>
      </trkpt>
      <trkpt lat="47.66376" lon="6.17662">
        <ele>228.1</ele>
        <time>2021-11-23T15:08:57Z</time>
      </trkpt>
      <trkpt lat="47.66381" lon="6.17653">
        <ele>228.4</ele>
        <time>2021-11-23T15:08:59Z</time>
      </trkpt>
      <trkpt lat="47.66393" lon="6.17635">
        <ele>228.8</ele>
        <time>2021-11-23T15:09:03Z</time>
      </trkpt>
      <trkpt lat="47.66397" lon="6.17628">
        <ele>228.5</ele>
        <time>2021-11-23T15:09:05Z</time>
      </trkpt>
      <trkpt lat="47.66405" lon="6.17614">
        <ele>228.6</ele>
        <time>2021-11-23T15:09:06Z</time>
      </trkpt>
      <trkpt lat="47.66411" lon="6.17606">
        <ele>228.7</ele>
        <time>2021-11-23T15:09:10Z</time>
      </trkpt>
      <trkpt lat="47.66422" lon="6.17595">
        <ele>228.5</ele>
        <time>2021-11-23T15:09:13Z</time>
      </trkpt>
      <trkpt lat="47.66426" lon="6.17592">
        <ele>228.5</ele>
        <time>2021-11-23T15:09:15Z</time>
      </trkpt>
      <trkpt lat="47.6643" lon="6.17589">
        <ele>228.6</ele>
        <time>2021-11-23T15:09:16Z</time>
      </trkpt>
      <trkpt lat="47.66441" lon="6.17581">
        <ele>228.8</ele>
        <time>2021-11-23T15:09:19Z</time>
      </trkpt>
      <trkpt lat="47.66451" lon="6.17575">
        <ele>228.8</ele>
        <time>2021-11-23T15:09:21Z</time>
      </trkpt>
      <trkpt lat="47.66456" lon="6.17573">
        <ele>228.8</ele>
        <time>2021-11-23T15:09:23Z</time>
      </trkpt>
      <trkpt lat="47.66466" lon="6.17567">
        <ele>228.9</ele>
        <time>2021-11-23T15:09:25Z</time>
      </trkpt>
      <trkpt lat="47.66471" lon="6.17565">
        <ele>229</ele>
        <time>2021-11-23T15:09:27Z</time>
      </trkpt>
      <trkpt lat="47.66483" lon="6.17558">
        <ele>229</ele>
        <time>2021-11-23T15:09:28Z</time>
      </trkpt>
      <trkpt lat="47.6649" lon="6.17555">
        <ele>229</ele>
        <time>2021-11-23T15:09:32Z</time>
      </trkpt>
      <trkpt lat="47.66495" lon="6.17551">
        <ele>229</ele>
        <time>2021-11-23T15:09:33Z</time>
      </trkpt>
      <trkpt lat="47.665" lon="6.17549">
        <ele>229</ele>
        <time>2021-11-23T15:09:35Z</time>
      </trkpt>
      <trkpt lat="47.6651" lon="6.17541">
        <ele>229</ele>
        <time>2021-11-23T15:09:38Z</time>
      </trkpt>
      <trkpt lat="47.66515" lon="6.17538">
        <ele>229</ele>
        <time>2021-11-23T15:09:39Z</time>
      </trkpt>
      <trkpt lat="47.6652" lon="6.17534">
        <ele>229</ele>
        <time>2021-11-23T15:09:41Z</time>
      </trkpt>
      <trkpt lat="47.66531" lon="6.17526">
        <ele>229</ele>
        <time>2021-11-23T15:09:44Z</time>
      </trkpt>
      <trkpt lat="47.66537" lon="6.17521">
        <ele>229.1</ele>
        <time>2021-11-23T15:09:46Z</time>
      </trkpt>
      <trkpt lat="47.66541" lon="6.17518">
        <ele>229.1</ele>
        <time>2021-11-23T15:09:47Z</time>
      </trkpt>
      <trkpt lat="47.66552" lon="6.17511">
        <ele>229.2</ele>
        <time>2021-11-23T15:09:48Z</time>
      </trkpt>
      <trkpt lat="47.66556" lon="6.17508">
        <ele>229.3</ele>
        <time>2021-11-23T15:09:51Z</time>
      </trkpt>
      <trkpt lat="47.66561" lon="6.17505">
        <ele>229.3</ele>
        <time>2021-11-23T15:09:53Z</time>
      </trkpt>
      <trkpt lat="47.66573" lon="6.17498">
        <ele>229.6</ele>
        <time>2021-11-23T15:09:56Z</time>
      </trkpt>
      <trkpt lat="47.66578" lon="6.17496">
        <ele>229.6</ele>
        <time>2021-11-23T15:09:58Z</time>
      </trkpt>
      <trkpt lat="47.6659" lon="6.1749">
        <ele>229.7</ele>
        <time>2021-11-23T15:09:59Z</time>
      </trkpt>
      <trkpt lat="47.66596" lon="6.17487">
        <ele>229.7</ele>
        <time>2021-11-23T15:10:03Z</time>
      </trkpt>
      <trkpt lat="47.66606" lon="6.17482">
        <ele>229.9</ele>
        <time>2021-11-23T15:10:06Z</time>
      </trkpt>
      <trkpt lat="47.66613" lon="6.17478">
        <ele>230</ele>
        <time>2021-11-23T15:10:08Z</time>
      </trkpt>
      <trkpt lat="47.6662" lon="6.17475">
        <ele>230</ele>
        <time>2021-11-23T15:10:10Z</time>
      </trkpt>
      <trkpt lat="47.66626" lon="6.17472">
        <ele>230</ele>
        <time>2021-11-23T15:10:12Z</time>
      </trkpt>
      <trkpt lat="47.66632" lon="6.1747">
        <ele>230</ele>
        <time>2021-11-23T15:10:13Z</time>
      </trkpt>
      <trkpt lat="47.66644" lon="6.17464">
        <ele>230.1</ele>
        <time>2021-11-23T15:10:17Z</time>
      </trkpt>
      <trkpt lat="47.66648" lon="6.17462">
        <ele>230.2</ele>
        <time>2021-11-23T15:10:18Z</time>
      </trkpt>
      <trkpt lat="47.66653" lon="6.17459">
        <ele>230.3</ele>
        <time>2021-11-23T15:10:19Z</time>
      </trkpt>
      <trkpt lat="47.66658" lon="6.17457">
        <ele>230.3</ele>
        <time>2021-11-23T15:10:21Z</time>
      </trkpt>
      <trkpt lat="47.66665" lon="6.17455">
        <ele>230.4</ele>
        <time>2021-11-23T15:10:23Z</time>
      </trkpt>
      <trkpt lat="47.66671" lon="6.17453">
        <ele>230.4</ele>
        <time>2021-11-23T15:10:25Z</time>
      </trkpt>
      <trkpt lat="47.66679" lon="6.1745">
        <ele>230.6</ele>
        <time>2021-11-23T15:10:27Z</time>
      </trkpt>
      <trkpt lat="47.66685" lon="6.17448">
        <ele>230.7</ele>
        <time>2021-11-23T15:10:29Z</time>
      </trkpt>
      <trkpt lat="47.66692" lon="6.17447">
        <ele>230.9</ele>
        <time>2021-11-23T15:10:31Z</time>
      </trkpt>
      <trkpt lat="47.66699" lon="6.17444">
        <ele>231</ele>
        <time>2021-11-23T15:10:33Z</time>
      </trkpt>
      <trkpt lat="47.66704" lon="6.17443">
        <ele>230.9</ele>
        <time>2021-11-23T15:10:34Z</time>
      </trkpt>
      <trkpt lat="47.66709" lon="6.17442">
        <ele>230.9</ele>
        <time>2021-11-23T15:10:36Z</time>
      </trkpt>
      <trkpt lat="47.66715" lon="6.17441">
        <ele>230.9</ele>
        <time>2021-11-23T15:10:38Z</time>
      </trkpt>
      <trkpt lat="47.66721" lon="6.1744">
        <ele>230.8</ele>
        <time>2021-11-23T15:10:39Z</time>
      </trkpt>
      <trkpt lat="47.66733" lon="6.17437">
        <ele>230.7</ele>
        <time>2021-11-23T15:10:43Z</time>
      </trkpt>
      <trkpt lat="47.66739" lon="6.17436">
        <ele>230.7</ele>
        <time>2021-11-23T15:10:45Z</time>
      </trkpt>
      <trkpt lat="47.66745" lon="6.17435">
        <ele>230.7</ele>
        <time>2021-11-23T15:10:47Z</time>
      </trkpt>
      <trkpt lat="47.66752" lon="6.17433">
        <ele>230.7</ele>
        <time>2021-11-23T15:10:49Z</time>
      </trkpt>
      <trkpt lat="47.66758" lon="6.17433">
        <ele>230.9</ele>
        <time>2021-11-23T15:10:51Z</time>
      </trkpt>
      <trkpt lat="47.66764" lon="6.17432">
        <ele>231.1</ele>
        <time>2021-11-23T15:10:53Z</time>
      </trkpt>
      <trkpt lat="47.66771" lon="6.17431">
        <ele>231.3</ele>
        <time>2021-11-23T15:10:55Z</time>
      </trkpt>
      <trkpt lat="47.66778" lon="6.17431">
        <ele>231.5</ele>
        <time>2021-11-23T15:10:57Z</time>
      </trkpt>
      <trkpt lat="47.66786" lon="6.17431">
        <ele>231.5</ele>
        <time>2021-11-23T15:10:59Z</time>
      </trkpt>
      <trkpt lat="47.66791" lon="6.1743">
        <ele>231.5</ele>
        <time>2021-11-23T15:11:01Z</time>
      </trkpt>
      <trkpt lat="47.66799" lon="6.17429">
        <ele>231.4</ele>
        <time>2021-11-23T15:11:03Z</time>
      </trkpt>
      <trkpt lat="47.66805" lon="6.17429">
        <ele>231.4</ele>
        <time>2021-11-23T15:11:04Z</time>
      </trkpt>
      <trkpt lat="47.66812" lon="6.17429">
        <ele>231.4</ele>
        <time>2021-11-23T15:11:07Z</time>
      </trkpt>
      <trkpt lat="47.66817" lon="6.17429">
        <ele>231.4</ele>
        <time>2021-11-23T15:11:08Z</time>
      </trkpt>
      <trkpt lat="47.66823" lon="6.17428">
        <ele>231.4</ele>
        <time>2021-11-23T15:11:09Z</time>
      </trkpt>
      <trkpt lat="47.66828" lon="6.17428">
        <ele>231.4</ele>
        <time>2021-11-23T15:11:11Z</time>
      </trkpt>
      <trkpt lat="47.66834" lon="6.17429">
        <ele>231.4</ele>
        <time>2021-11-23T15:11:12Z</time>
      </trkpt>
      <trkpt lat="47.66839" lon="6.17429">
        <ele>231.4</ele>
        <time>2021-11-23T15:11:14Z</time>
      </trkpt>
      <trkpt lat="47.66845" lon="6.17429">
        <ele>231.5</ele>
        <time>2021-11-23T15:11:16Z</time>
      </trkpt>
      <trkpt lat="47.6685" lon="6.17429">
        <ele>231.5</ele>
        <time>2021-11-23T15:11:17Z</time>
      </trkpt>
      <trkpt lat="47.66856" lon="6.1743">
        <ele>231.5</ele>
        <time>2021-11-23T15:11:19Z</time>
      </trkpt>
      <trkpt lat="47.66862" lon="6.1743">
        <ele>231.5</ele>
        <time>2021-11-23T15:11:21Z</time>
      </trkpt>
      <trkpt lat="47.66873" lon="6.17429">
        <ele>231.9</ele>
        <time>2021-11-23T15:11:21Z</time>
      </trkpt>
      <trkpt lat="47.66878" lon="6.17429">
        <ele>232</ele>
        <time>2021-11-23T15:11:25Z</time>
      </trkpt>
      <trkpt lat="47.66883" lon="6.17427">
        <ele>232.2</ele>
        <time>2021-11-23T15:11:27Z</time>
      </trkpt>
      <trkpt lat="47.66891" lon="6.17423">
        <ele>232.2</ele>
        <time>2021-11-23T15:11:30Z</time>
      </trkpt>
      <trkpt lat="47.66895" lon="6.17422">
        <ele>232.2</ele>
        <time>2021-11-23T15:11:32Z</time>
      </trkpt>
      <trkpt lat="47.66891" lon="6.17419">
        <ele>232.1</ele>
        <time>2021-11-23T15:11:34Z</time>
      </trkpt>
      <trkpt lat="47.66886" lon="6.17421">
        <ele>232.1</ele>
        <time>2021-11-23T15:11:37Z</time>
      </trkpt>
      <trkpt lat="47.66881" lon="6.17424">
        <ele>232</ele>
        <time>2021-11-23T15:11:42Z</time>
      </trkpt>
      <trkpt lat="47.66875" lon="6.17425">
        <ele>231.8</ele>
        <time>2021-11-23T15:11:44Z</time>
      </trkpt>
      <trkpt lat="47.66869" lon="6.17427">
        <ele>231.7</ele>
        <time>2021-11-23T15:11:45Z</time>
      </trkpt>
      <trkpt lat="47.66855" lon="6.17428">
        <ele>231.4</ele>
        <time>2021-11-23T15:11:49Z</time>
      </trkpt>
      <trkpt lat="47.66843" lon="6.17429">
        <ele>231.4</ele>
        <time>2021-11-23T15:11:52Z</time>
      </trkpt>
      <trkpt lat="47.66838" lon="6.17429">
        <ele>231.4</ele>
        <time>2021-11-23T15:11:53Z</time>
      </trkpt>
      <trkpt lat="47.66826" lon="6.17427">
        <ele>231.4</ele>
        <time>2021-11-23T15:11:56Z</time>
      </trkpt>
      <trkpt lat="47.66819" lon="6.17427">
        <ele>231.4</ele>
        <time>2021-11-23T15:11:57Z</time>
      </trkpt>
      <trkpt lat="47.66813" lon="6.17427">
        <ele>231.4</ele>
        <time>2021-11-23T15:11:59Z</time>
      </trkpt>
      <trkpt lat="47.66807" lon="6.17427">
        <ele>231.4</ele>
        <time>2021-11-23T15:12:00Z</time>
      </trkpt>
      <trkpt lat="47.66793" lon="6.17427">
        <ele>231.4</ele>
        <time>2021-11-23T15:12:04Z</time>
      </trkpt>
      <trkpt lat="47.66786" lon="6.17428">
        <ele>231.4</ele>
        <time>2021-11-23T15:12:06Z</time>
      </trkpt>
      <trkpt lat="47.6678" lon="6.17428">
        <ele>231.4</ele>
        <time>2021-11-23T15:12:08Z</time>
      </trkpt>
      <trkpt lat="47.66775" lon="6.17429">
        <ele>231.3</ele>
        <time>2021-11-23T15:12:09Z</time>
      </trkpt>
      <trkpt lat="47.66769" lon="6.17429">
        <ele>231.1</ele>
        <time>2021-11-23T15:12:10Z</time>
      </trkpt>
      <trkpt lat="47.66763" lon="6.1743">
        <ele>230.9</ele>
        <time>2021-11-23T15:12:12Z</time>
      </trkpt>
      <trkpt lat="47.66757" lon="6.17431">
        <ele>230.8</ele>
        <time>2021-11-23T15:12:14Z</time>
      </trkpt>
      <trkpt lat="47.66746" lon="6.17433">
        <ele>230.6</ele>
        <time>2021-11-23T15:12:16Z</time>
      </trkpt>
      <trkpt lat="47.66734" lon="6.17435">
        <ele>230.7</ele>
        <time>2021-11-23T15:12:20Z</time>
      </trkpt>
      <trkpt lat="47.66729" lon="6.17436">
        <ele>230.7</ele>
        <time>2021-11-23T15:12:21Z</time>
      </trkpt>
      <trkpt lat="47.66722" lon="6.17437">
        <ele>230.7</ele>
        <time>2021-11-23T15:12:23Z</time>
      </trkpt>
      <trkpt lat="47.66711" lon="6.17439">
        <ele>230.8</ele>
        <time>2021-11-23T15:12:26Z</time>
      </trkpt>
      <trkpt lat="47.66699" lon="6.17441">
        <ele>230.9</ele>
        <time>2021-11-23T15:12:29Z</time>
      </trkpt>
      <trkpt lat="47.66694" lon="6.17442">
        <ele>230.9</ele>
        <time>2021-11-23T15:12:30Z</time>
      </trkpt>
      <trkpt lat="47.66689" lon="6.17444">
        <ele>230.8</ele>
        <time>2021-11-23T15:12:32Z</time>
      </trkpt>
      <trkpt lat="47.6668" lon="6.17446">
        <ele>230.5</ele>
        <time>2021-11-23T15:12:34Z</time>
      </trkpt>
      <trkpt lat="47.66673" lon="6.17448">
        <ele>230.3</ele>
        <time>2021-11-23T15:12:36Z</time>
      </trkpt>
      <trkpt lat="47.66669" lon="6.17449">
        <ele>230.2</ele>
        <time>2021-11-23T15:12:37Z</time>
      </trkpt>
      <trkpt lat="47.66664" lon="6.17451">
        <ele>230.2</ele>
        <time>2021-11-23T15:12:38Z</time>
      </trkpt>
      <trkpt lat="47.66657" lon="6.17453">
        <ele>230.2</ele>
        <time>2021-11-23T15:12:40Z</time>
      </trkpt>
      <trkpt lat="47.66652" lon="6.17456">
        <ele>230.2</ele>
        <time>2021-11-23T15:12:41Z</time>
      </trkpt>
      <trkpt lat="47.66647" lon="6.17458">
        <ele>230.1</ele>
        <time>2021-11-23T15:12:43Z</time>
      </trkpt>
      <trkpt lat="47.66642" lon="6.17461">
        <ele>230.1</ele>
        <time>2021-11-23T15:12:44Z</time>
      </trkpt>
      <trkpt lat="47.66637" lon="6.17464">
        <ele>230</ele>
        <time>2021-11-23T15:12:45Z</time>
      </trkpt>
      <trkpt lat="47.66631" lon="6.17467">
        <ele>229.9</ele>
        <time>2021-11-23T15:12:47Z</time>
      </trkpt>
      <trkpt lat="47.66624" lon="6.17469">
        <ele>229.9</ele>
        <time>2021-11-23T15:12:49Z</time>
      </trkpt>
      <trkpt lat="47.66617" lon="6.17473">
        <ele>230</ele>
        <time>2021-11-23T15:12:51Z</time>
      </trkpt>
      <trkpt lat="47.66609" lon="6.17476">
        <ele>229.9</ele>
        <time>2021-11-23T15:12:53Z</time>
      </trkpt>
      <trkpt lat="47.66602" lon="6.1748">
        <ele>229.8</ele>
        <time>2021-11-23T15:12:55Z</time>
      </trkpt>
      <trkpt lat="47.66595" lon="6.17483">
        <ele>229.6</ele>
        <time>2021-11-23T15:12:57Z</time>
      </trkpt>
      <trkpt lat="47.66582" lon="6.17488">
        <ele>229.5</ele>
        <time>2021-11-23T15:13:00Z</time>
      </trkpt>
      <trkpt lat="47.66575" lon="6.17492">
        <ele>229.4</ele>
        <time>2021-11-23T15:13:02Z</time>
      </trkpt>
      <trkpt lat="47.66568" lon="6.17496">
        <ele>229.3</ele>
        <time>2021-11-23T15:13:04Z</time>
      </trkpt>
      <trkpt lat="47.66562" lon="6.175">
        <ele>229.2</ele>
        <time>2021-11-23T15:13:06Z</time>
      </trkpt>
      <trkpt lat="47.66555" lon="6.17503">
        <ele>229.1</ele>
        <time>2021-11-23T15:13:07Z</time>
      </trkpt>
      <trkpt lat="47.66551" lon="6.17506">
        <ele>229.1</ele>
        <time>2021-11-23T15:13:09Z</time>
      </trkpt>
      <trkpt lat="47.66546" lon="6.17509">
        <ele>229</ele>
        <time>2021-11-23T15:13:10Z</time>
      </trkpt>
      <trkpt lat="47.66539" lon="6.17513">
        <ele>228.9</ele>
        <time>2021-11-23T15:13:12Z</time>
      </trkpt>
      <trkpt lat="47.66535" lon="6.17516">
        <ele>228.9</ele>
        <time>2021-11-23T15:13:13Z</time>
      </trkpt>
      <trkpt lat="47.6653" lon="6.1752">
        <ele>228.8</ele>
        <time>2021-11-23T15:13:15Z</time>
      </trkpt>
      <trkpt lat="47.66525" lon="6.17524">
        <ele>228.9</ele>
        <time>2021-11-23T15:13:16Z</time>
      </trkpt>
      <trkpt lat="47.66521" lon="6.17527">
        <ele>229</ele>
        <time>2021-11-23T15:13:17Z</time>
      </trkpt>
      <trkpt lat="47.66516" lon="6.17531">
        <ele>229</ele>
        <time>2021-11-23T15:13:19Z</time>
      </trkpt>
      <trkpt lat="47.66512" lon="6.17534">
        <ele>229</ele>
        <time>2021-11-23T15:13:20Z</time>
      </trkpt>
      <trkpt lat="47.66506" lon="6.17538">
        <ele>229</ele>
        <time>2021-11-23T15:13:21Z</time>
      </trkpt>
      <trkpt lat="47.66502" lon="6.17542">
        <ele>229</ele>
        <time>2021-11-23T15:13:23Z</time>
      </trkpt>
      <trkpt lat="47.66497" lon="6.17545">
        <ele>229</ele>
        <time>2021-11-23T15:13:24Z</time>
      </trkpt>
      <trkpt lat="47.66489" lon="6.17551">
        <ele>228.9</ele>
        <time>2021-11-23T15:13:26Z</time>
      </trkpt>
      <trkpt lat="47.66485" lon="6.17554">
        <ele>229</ele>
        <time>2021-11-23T15:13:27Z</time>
      </trkpt>
      <trkpt lat="47.66477" lon="6.17559">
        <ele>229</ele>
        <time>2021-11-23T15:13:30Z</time>
      </trkpt>
      <trkpt lat="47.6647" lon="6.17564">
        <ele>228.9</ele>
        <time>2021-11-23T15:13:32Z</time>
      </trkpt>
      <trkpt lat="47.66464" lon="6.17567">
        <ele>228.8</ele>
        <time>2021-11-23T15:13:33Z</time>
      </trkpt>
      <trkpt lat="47.66459" lon="6.17571">
        <ele>228.8</ele>
        <time>2021-11-23T15:13:35Z</time>
      </trkpt>
      <trkpt lat="47.66454" lon="6.17573">
        <ele>228.8</ele>
        <time>2021-11-23T15:13:36Z</time>
      </trkpt>
      <trkpt lat="47.66443" lon="6.17581">
        <ele>228.9</ele>
        <time>2021-11-23T15:13:40Z</time>
      </trkpt>
      <trkpt lat="47.66437" lon="6.17585">
        <ele>228.7</ele>
        <time>2021-11-23T15:13:42Z</time>
      </trkpt>
      <trkpt lat="47.66427" lon="6.17591">
        <ele>228.5</ele>
        <time>2021-11-23T15:13:45Z</time>
      </trkpt>
      <trkpt lat="47.6642" lon="6.17596">
        <ele>228.5</ele>
        <time>2021-11-23T15:13:47Z</time>
      </trkpt>
      <trkpt lat="47.66413" lon="6.17602">
        <ele>228.6</ele>
        <time>2021-11-23T15:13:49Z</time>
      </trkpt>
      <trkpt lat="47.66408" lon="6.17608">
        <ele>228.6</ele>
        <time>2021-11-23T15:13:51Z</time>
      </trkpt>
      <trkpt lat="47.66403" lon="6.17614">
        <ele>228.5</ele>
        <time>2021-11-23T15:13:53Z</time>
      </trkpt>
      <trkpt lat="47.66399" lon="6.17619">
        <ele>228.4</ele>
        <time>2021-11-23T15:13:55Z</time>
      </trkpt>
      <trkpt lat="47.66394" lon="6.17627">
        <ele>228.5</ele>
        <time>2021-11-23T15:13:56Z</time>
      </trkpt>
      <trkpt lat="47.66391" lon="6.17632">
        <ele>228.7</ele>
        <time>2021-11-23T15:13:58Z</time>
      </trkpt>
      <trkpt lat="47.66387" lon="6.17639">
        <ele>228.9</ele>
        <time>2021-11-23T15:14:00Z</time>
      </trkpt>
      <trkpt lat="47.66382" lon="6.17648">
        <ele>228.5</ele>
        <time>2021-11-23T15:14:02Z</time>
      </trkpt>
      <trkpt lat="47.66373" lon="6.17663">
        <ele>228.1</ele>
        <time>2021-11-23T15:14:05Z</time>
      </trkpt>
      <trkpt lat="47.66366" lon="6.17677">
        <ele>228</ele>
        <time>2021-11-23T15:14:09Z</time>
      </trkpt>
      <trkpt lat="47.66362" lon="6.17684">
        <ele>228</ele>
        <time>2021-11-23T15:14:11Z</time>
      </trkpt>
      <trkpt lat="47.66356" lon="6.17699">
        <ele>228</ele>
        <time>2021-11-23T15:14:14Z</time>
      </trkpt>
      <trkpt lat="47.6635" lon="6.17717">
        <ele>228</ele>
        <time>2021-11-23T15:14:18Z</time>
      </trkpt>
      <trkpt lat="47.66347" lon="6.17732">
        <ele>228</ele>
        <time>2021-11-23T15:14:21Z</time>
      </trkpt>
      <trkpt lat="47.66344" lon="6.17749">
        <ele>228</ele>
        <time>2021-11-23T15:14:24Z</time>
      </trkpt>
      <trkpt lat="47.66342" lon="6.1776">
        <ele>228</ele>
        <time>2021-11-23T15:14:26Z</time>
      </trkpt>
      <trkpt lat="47.6634" lon="6.17778">
        <ele>228</ele>
        <time>2021-11-23T15:14:26Z</time>
      </trkpt>
      <trkpt lat="47.6634" lon="6.17786">
        <ele>228.1</ele>
        <time>2021-11-23T15:14:30Z</time>
      </trkpt>
      <trkpt lat="47.66338" lon="6.17804">
        <ele>228.2</ele>
        <time>2021-11-23T15:14:33Z</time>
      </trkpt>
      <trkpt lat="47.66338" lon="6.1781">
        <ele>228.2</ele>
        <time>2021-11-23T15:14:35Z</time>
      </trkpt>
      <trkpt lat="47.66337" lon="6.17819">
        <ele>228.1</ele>
        <time>2021-11-23T15:14:36Z</time>
      </trkpt>
      <trkpt lat="47.66336" lon="6.17826">
        <ele>228.1</ele>
        <time>2021-11-23T15:14:38Z</time>
      </trkpt>
      <trkpt lat="47.66336" lon="6.17836">
        <ele>228.2</ele>
        <time>2021-11-23T15:14:39Z</time>
      </trkpt>
      <trkpt lat="47.66335" lon="6.17843">
        <ele>228.4</ele>
        <time>2021-11-23T15:14:41Z</time>
      </trkpt>
      <trkpt lat="47.66335" lon="6.17853">
        <ele>228.7</ele>
        <time>2021-11-23T15:14:43Z</time>
      </trkpt>
      <trkpt lat="47.66334" lon="6.17872">
        <ele>229</ele>
        <time>2021-11-23T15:14:47Z</time>
      </trkpt>
      <trkpt lat="47.66335" lon="6.17881">
        <ele>229</ele>
        <time>2021-11-23T15:14:48Z</time>
      </trkpt>
      <trkpt lat="47.66333" lon="6.17892">
        <ele>229</ele>
        <time>2021-11-23T15:14:51Z</time>
      </trkpt>
      <trkpt lat="47.66333" lon="6.17899">
        <ele>229</ele>
        <time>2021-11-23T15:14:53Z</time>
      </trkpt>
      <trkpt lat="47.66332" lon="6.17908">
        <ele>229</ele>
        <time>2021-11-23T15:14:55Z</time>
      </trkpt>
      <trkpt lat="47.66332" lon="6.17917">
        <ele>229</ele>
        <time>2021-11-23T15:14:57Z</time>
      </trkpt>
      <trkpt lat="47.6633" lon="6.17936">
        <ele>229</ele>
        <time>2021-11-23T15:15:01Z</time>
      </trkpt>
      <trkpt lat="47.6633" lon="6.17946">
        <ele>229</ele>
        <time>2021-11-23T15:15:03Z</time>
      </trkpt>
      <trkpt lat="47.66329" lon="6.17954">
        <ele>229</ele>
        <time>2021-11-23T15:15:04Z</time>
      </trkpt>
      <trkpt lat="47.66328" lon="6.17961">
        <ele>229</ele>
        <time>2021-11-23T15:15:06Z</time>
      </trkpt>
      <trkpt lat="47.66324" lon="6.1797">
        <ele>229</ele>
        <time>2021-11-23T15:15:08Z</time>
      </trkpt>
      <trkpt lat="47.66311" lon="6.17973">
        <ele>229</ele>
        <time>2021-11-23T15:15:12Z</time>
      </trkpt>
      <trkpt lat="47.66305" lon="6.17972">
        <ele>229</ele>
        <time>2021-11-23T15:15:13Z</time>
      </trkpt>
      <trkpt lat="47.663" lon="6.17972">
        <ele>229.2</ele>
        <time>2021-11-23T15:15:15Z</time>
      </trkpt>
      <trkpt lat="47.66295" lon="6.17972">
        <ele>229.4</ele>
        <time>2021-11-23T15:15:16Z</time>
      </trkpt>
      <trkpt lat="47.6629" lon="6.17971">
        <ele>229.5</ele>
        <time>2021-11-23T15:15:18Z</time>
      </trkpt>
      <trkpt lat="47.66284" lon="6.17971">
        <ele>229.7</ele>
        <time>2021-11-23T15:15:20Z</time>
      </trkpt>
      <trkpt lat="47.66279" lon="6.1797">
        <ele>229.9</ele>
        <time>2021-11-23T15:15:21Z</time>
      </trkpt>
      <trkpt lat="47.66274" lon="6.17969">
        <ele>230</ele>
        <time>2021-11-23T15:15:23Z</time>
      </trkpt>
      <trkpt lat="47.66268" lon="6.17968">
        <ele>230.2</ele>
        <time>2021-11-23T15:15:25Z</time>
      </trkpt>
      <trkpt lat="47.66263" lon="6.17968">
        <ele>230.3</ele>
        <time>2021-11-23T15:15:27Z</time>
      </trkpt>
      <trkpt lat="47.66252" lon="6.17966">
        <ele>230.5</ele>
        <time>2021-11-23T15:15:28Z</time>
      </trkpt>
      <trkpt lat="47.66246" lon="6.17966">
        <ele>230.8</ele>
        <time>2021-11-23T15:15:33Z</time>
      </trkpt>
      <trkpt lat="47.6624" lon="6.17965">
        <ele>231.1</ele>
        <time>2021-11-23T15:15:36Z</time>
      </trkpt>
      <trkpt lat="47.66235" lon="6.17963">
        <ele>231.3</ele>
        <time>2021-11-23T15:15:38Z</time>
      </trkpt>
      <trkpt lat="47.6623" lon="6.17963">
        <ele>231.5</ele>
        <time>2021-11-23T15:15:40Z</time>
      </trkpt>
      <trkpt lat="47.66218" lon="6.17959">
        <ele>231.8</ele>
        <time>2021-11-23T15:15:45Z</time>
      </trkpt>
      <trkpt lat="47.66213" lon="6.17958">
        <ele>231.8</ele>
        <time>2021-11-23T15:15:47Z</time>
      </trkpt>
      <trkpt lat="47.66209" lon="6.17957">
        <ele>231.8</ele>
        <time>2021-11-23T15:15:49Z</time>
      </trkpt>
      <trkpt lat="47.66203" lon="6.17955">
        <ele>231.9</ele>
        <time>2021-11-23T15:15:51Z</time>
      </trkpt>
      <trkpt lat="47.66198" lon="6.17954">
        <ele>231.9</ele>
        <time>2021-11-23T15:15:53Z</time>
      </trkpt>
      <trkpt lat="47.66193" lon="6.17953">
        <ele>231.9</ele>
        <time>2021-11-23T15:15:55Z</time>
      </trkpt>
      <trkpt lat="47.66187" lon="6.17952">
        <ele>231.8</ele>
        <time>2021-11-23T15:15:57Z</time>
      </trkpt>
      <trkpt lat="47.66181" lon="6.1795">
        <ele>231.8</ele>
        <time>2021-11-23T15:15:58Z</time>
      </trkpt>
      <trkpt lat="47.6617" lon="6.17948">
        <ele>231.6</ele>
        <time>2021-11-23T15:16:02Z</time>
      </trkpt>
      <trkpt lat="47.66165" lon="6.17948">
        <ele>231.6</ele>
        <time>2021-11-23T15:16:03Z</time>
      </trkpt>
      <trkpt lat="47.6616" lon="6.17949">
        <ele>231.6</ele>
        <time>2021-11-23T15:16:05Z</time>
      </trkpt>
      <trkpt lat="47.66154" lon="6.17948">
        <ele>231.6</ele>
        <time>2021-11-23T15:16:07Z</time>
      </trkpt>
      <trkpt lat="47.66146" lon="6.17948">
        <ele>231.5</ele>
        <time>2021-11-23T15:16:09Z</time>
      </trkpt>
      <trkpt lat="47.6614" lon="6.17949">
        <ele>231.6</ele>
        <time>2021-11-23T15:16:11Z</time>
      </trkpt>
      <trkpt lat="47.66132" lon="6.17949">
        <ele>231.6</ele>
        <time>2021-11-23T15:16:13Z</time>
      </trkpt>
      <trkpt lat="47.66125" lon="6.17948">
        <ele>231.5</ele>
        <time>2021-11-23T15:16:14Z</time>
      </trkpt>
      <trkpt lat="47.6612" lon="6.17948">
        <ele>231.5</ele>
        <time>2021-11-23T15:16:16Z</time>
      </trkpt>
      <trkpt lat="47.66107" lon="6.17948">
        <ele>231.4</ele>
        <time>2021-11-23T15:16:18Z</time>
      </trkpt>
      <trkpt lat="47.66101" lon="6.17948">
        <ele>231.2</ele>
        <time>2021-11-23T15:16:20Z</time>
      </trkpt>
      <trkpt lat="47.66095" lon="6.17948">
        <ele>231</ele>
        <time>2021-11-23T15:16:21Z</time>
      </trkpt>
      <trkpt lat="47.66082" lon="6.17949">
        <ele>230.7</ele>
        <time>2021-11-23T15:16:24Z</time>
      </trkpt>
      <trkpt lat="47.66077" lon="6.17949">
        <ele>230.7</ele>
        <time>2021-11-23T15:16:25Z</time>
      </trkpt>
      <trkpt lat="47.66069" lon="6.17949">
        <ele>230.7</ele>
        <time>2021-11-23T15:16:26Z</time>
      </trkpt>
      <trkpt lat="47.66063" lon="6.17949">
        <ele>230.7</ele>
        <time>2021-11-23T15:16:28Z</time>
      </trkpt>
      <trkpt lat="47.66055" lon="6.17948">
        <ele>230.6</ele>
        <time>2021-11-23T15:16:29Z</time>
      </trkpt>
      <trkpt lat="47.66049" lon="6.17948">
        <ele>230.5</ele>
        <time>2021-11-23T15:16:31Z</time>
      </trkpt>
      <trkpt lat="47.66044" lon="6.17948">
        <ele>230.6</ele>
        <time>2021-11-23T15:16:32Z</time>
      </trkpt>
      <trkpt lat="47.66031" lon="6.17948">
        <ele>230.5</ele>
        <time>2021-11-23T15:16:32Z</time>
      </trkpt>
      <trkpt lat="47.66023" lon="6.17948">
        <ele>230.6</ele>
        <time>2021-11-23T15:16:34Z</time>
      </trkpt>
      <trkpt lat="47.66016" lon="6.17948">
        <ele>230.9</ele>
        <time>2021-11-23T15:16:39Z</time>
      </trkpt>
      <trkpt lat="47.6601" lon="6.17948">
        <ele>231.1</ele>
        <time>2021-11-23T15:16:41Z</time>
      </trkpt>
      <trkpt lat="47.66003" lon="6.17947">
        <ele>231.3</ele>
        <time>2021-11-23T15:16:43Z</time>
      </trkpt>
      <trkpt lat="47.65994" lon="6.17947">
        <ele>231.6</ele>
        <time>2021-11-23T15:16:46Z</time>
      </trkpt>
      <trkpt lat="47.65988" lon="6.17947">
        <ele>231.7</ele>
        <time>2021-11-23T15:16:48Z</time>
      </trkpt>
      <trkpt lat="47.65982" lon="6.17946">
        <ele>231.8</ele>
        <time>2021-11-23T15:16:50Z</time>
      </trkpt>
      <trkpt lat="47.65977" lon="6.17946">
        <ele>231.9</ele>
        <time>2021-11-23T15:16:52Z</time>
      </trkpt>
      <trkpt lat="47.65971" lon="6.17945">
        <ele>232.1</ele>
        <time>2021-11-23T15:16:53Z</time>
      </trkpt>
      <trkpt lat="47.65964" lon="6.17944">
        <ele>232</ele>
        <time>2021-11-23T15:16:56Z</time>
      </trkpt>
      <trkpt lat="47.65959" lon="6.17944">
        <ele>232</ele>
        <time>2021-11-23T15:16:58Z</time>
      </trkpt>
      <trkpt lat="47.65953" lon="6.17945">
        <ele>232</ele>
        <time>2021-11-23T15:17:00Z</time>
      </trkpt>
      <trkpt lat="47.65948" lon="6.17944">
        <ele>232</ele>
        <time>2021-11-23T15:17:02Z</time>
      </trkpt>
      <trkpt lat="47.65936" lon="6.17946">
        <ele>232.7</ele>
        <time>2021-11-23T15:17:03Z</time>
      </trkpt>
      <trkpt lat="47.65931" lon="6.17946">
        <ele>233.1</ele>
        <time>2021-11-23T15:17:05Z</time>
      </trkpt>
      <trkpt lat="47.65926" lon="6.17946">
        <ele>233.4</ele>
        <time>2021-11-23T15:17:10Z</time>
      </trkpt>
      <trkpt lat="47.65914" lon="6.17948">
        <ele>234.1</ele>
        <time>2021-11-23T15:17:15Z</time>
      </trkpt>
      <trkpt lat="47.65908" lon="6.17948">
        <ele>234.2</ele>
        <time>2021-11-23T15:17:17Z</time>
      </trkpt>
      <trkpt lat="47.65903" lon="6.17949">
        <ele>234.2</ele>
        <time>2021-11-23T15:17:20Z</time>
      </trkpt>
      <trkpt lat="47.65898" lon="6.17949">
        <ele>234.3</ele>
        <time>2021-11-23T15:17:22Z</time>
      </trkpt>
      <trkpt lat="47.65893" lon="6.1795">
        <ele>234.4</ele>
        <time>2021-11-23T15:17:25Z</time>
      </trkpt>
      <trkpt lat="47.65891" lon="6.17956">
        <ele>234.8</ele>
        <time>2021-11-23T15:17:28Z</time>
      </trkpt>
      <trkpt lat="47.65898" lon="6.17968">
        <ele>235.4</ele>
        <time>2021-11-23T15:17:30Z</time>
      </trkpt>
      <trkpt lat="47.65904" lon="6.17972">
        <ele>235.5</ele>
        <time>2021-11-23T15:17:33Z</time>
      </trkpt>
      <trkpt lat="47.65908" lon="6.17976">
        <ele>235.7</ele>
        <time>2021-11-23T15:17:36Z</time>
      </trkpt>
      <trkpt lat="47.65913" lon="6.17979">
        <ele>235.9</ele>
        <time>2021-11-23T15:17:39Z</time>
      </trkpt>
      <trkpt lat="47.65918" lon="6.17981">
        <ele>236</ele>
        <time>2021-11-23T15:17:42Z</time>
      </trkpt>
      <trkpt lat="47.65922" lon="6.17986">
        <ele>236.5</ele>
        <time>2021-11-23T15:17:48Z</time>
      </trkpt>
      <trkpt lat="47.65927" lon="6.17989">
        <ele>236.8</ele>
        <time>2021-11-23T15:17:48Z</time>
      </trkpt>
      <trkpt lat="47.65932" lon="6.17992">
        <ele>237.2</ele>
        <time>2021-11-23T15:17:51Z</time>
      </trkpt>
      <trkpt lat="47.65936" lon="6.17996">
        <ele>237.6</ele>
        <time>2021-11-23T15:17:54Z</time>
      </trkpt>
      <trkpt lat="47.65941" lon="6.18">
        <ele>238</ele>
        <time>2021-11-23T15:17:57Z</time>
      </trkpt>
      <trkpt lat="47.65946" lon="6.18004">
        <ele>238.2</ele>
        <time>2021-11-23T15:18:00Z</time>
      </trkpt>
      <trkpt lat="47.6595" lon="6.18008">
        <ele>238.4</ele>
        <time>2021-11-23T15:18:03Z</time>
      </trkpt>
      <trkpt lat="47.65955" lon="6.18011">
        <ele>238.6</ele>
        <time>2021-11-23T15:18:06Z</time>
      </trkpt>
      <trkpt lat="47.65959" lon="6.18016">
        <ele>238.9</ele>
        <time>2021-11-23T15:18:09Z</time>
      </trkpt>
      <trkpt lat="47.65962" lon="6.18019">
        <ele>239.1</ele>
        <time>2021-11-23T15:18:12Z</time>
      </trkpt>
      <trkpt lat="47.65967" lon="6.18023">
        <ele>239.5</ele>
        <time>2021-11-23T15:18:15Z</time>
      </trkpt>
      <trkpt lat="47.65969" lon="6.18029">
        <ele>240.1</ele>
        <time>2021-11-23T15:18:18Z</time>
      </trkpt>
      <trkpt lat="47.65974" lon="6.1803">
        <ele>240.2</ele>
        <time>2021-11-23T15:18:21Z</time>
      </trkpt>
      <trkpt lat="47.65978" lon="6.18033">
        <ele>240.5</ele>
        <time>2021-11-23T15:18:24Z</time>
      </trkpt>
      <trkpt lat="47.65981" lon="6.18039">
        <ele>241.2</ele>
        <time>2021-11-23T15:18:27Z</time>
      </trkpt>
      <trkpt lat="47.65985" lon="6.18046">
        <ele>241.9</ele>
        <time>2021-11-23T15:18:31Z</time>
      </trkpt>
      <trkpt lat="47.6599" lon="6.18047">
        <ele>242.1</ele>
        <time>2021-11-23T15:18:35Z</time>
      </trkpt>
      <trkpt lat="47.65994" lon="6.18053">
        <ele>242.7</ele>
        <time>2021-11-23T15:18:39Z</time>
      </trkpt>
      <trkpt lat="47.65997" lon="6.18059">
        <ele>243.3</ele>
        <time>2021-11-23T15:18:42Z</time>
      </trkpt>
      <trkpt lat="47.66001" lon="6.18065">
        <ele>243.7</ele>
        <time>2021-11-23T15:18:46Z</time>
      </trkpt>
      <trkpt lat="47.66004" lon="6.1807">
        <ele>244.1</ele>
        <time>2021-11-23T15:18:49Z</time>
      </trkpt>
      <trkpt lat="47.66007" lon="6.18076">
        <ele>244.5</ele>
        <time>2021-11-23T15:18:52Z</time>
      </trkpt>
      <trkpt lat="47.66011" lon="6.18082">
        <ele>244.9</ele>
        <time>2021-11-23T15:18:57Z</time>
      </trkpt>
      <trkpt lat="47.66015" lon="6.18086">
        <ele>245.3</ele>
        <time>2021-11-23T15:19:01Z</time>
      </trkpt>
      <trkpt lat="47.66018" lon="6.18091">
        <ele>245.9</ele>
        <time>2021-11-23T15:19:05Z</time>
      </trkpt>
      <trkpt lat="47.66021" lon="6.18096">
        <ele>246.5</ele>
        <time>2021-11-23T15:19:09Z</time>
      </trkpt>
      <trkpt lat="47.66026" lon="6.18099">
        <ele>246.8</ele>
        <time>2021-11-23T15:19:13Z</time>
      </trkpt>
      <trkpt lat="47.6603" lon="6.18103">
        <ele>247.2</ele>
        <time>2021-11-23T15:19:16Z</time>
      </trkpt>
      <trkpt lat="47.66034" lon="6.18105">
        <ele>247.6</ele>
        <time>2021-11-23T15:19:19Z</time>
      </trkpt>
      <trkpt lat="47.66039" lon="6.18106">
        <ele>247.9</ele>
        <time>2021-11-23T15:19:22Z</time>
      </trkpt>
      <trkpt lat="47.66044" lon="6.18107">
        <ele>248.2</ele>
        <time>2021-11-23T15:19:26Z</time>
      </trkpt>
      <trkpt lat="47.6605" lon="6.1811">
        <ele>248.6</ele>
        <time>2021-11-23T15:19:31Z</time>
      </trkpt>
      <trkpt lat="47.66056" lon="6.1811">
        <ele>248.9</ele>
        <time>2021-11-23T15:19:35Z</time>
      </trkpt>
      <trkpt lat="47.6606" lon="6.18111">
        <ele>249</ele>
        <time>2021-11-23T15:19:40Z</time>
      </trkpt>
      <trkpt lat="47.66065" lon="6.18114">
        <ele>249.4</ele>
        <time>2021-11-23T15:19:42Z</time>
      </trkpt>
      <trkpt lat="47.66069" lon="6.18117">
        <ele>249.8</ele>
        <time>2021-11-23T15:19:46Z</time>
      </trkpt>
      <trkpt lat="47.66074" lon="6.18118">
        <ele>249.9</ele>
        <time>2021-11-23T15:19:50Z</time>
      </trkpt>
      <trkpt lat="47.66079" lon="6.18119">
        <ele>250.1</ele>
        <time>2021-11-23T15:19:56Z</time>
      </trkpt>
      <trkpt lat="47.66084" lon="6.1812">
        <ele>250.3</ele>
        <time>2021-11-23T15:19:57Z</time>
      </trkpt>
      <trkpt lat="47.66089" lon="6.18122">
        <ele>250.6</ele>
        <time>2021-11-23T15:20:01Z</time>
      </trkpt>
      <trkpt lat="47.66093" lon="6.18124">
        <ele>250.9</ele>
        <time>2021-11-23T15:20:05Z</time>
      </trkpt>
      <trkpt lat="47.66099" lon="6.18127">
        <ele>251.3</ele>
        <time>2021-11-23T15:20:09Z</time>
      </trkpt>
      <trkpt lat="47.66103" lon="6.18129">
        <ele>251.6</ele>
        <time>2021-11-23T15:20:13Z</time>
      </trkpt>
      <trkpt lat="47.66108" lon="6.18132">
        <ele>252.1</ele>
        <time>2021-11-23T15:20:17Z</time>
      </trkpt>
      <trkpt lat="47.66113" lon="6.18135">
        <ele>252.3</ele>
        <time>2021-11-23T15:20:21Z</time>
      </trkpt>
      <trkpt lat="47.66118" lon="6.18137">
        <ele>252.5</ele>
        <time>2021-11-23T15:20:25Z</time>
      </trkpt>
      <trkpt lat="47.66123" lon="6.1814">
        <ele>252.7</ele>
        <time>2021-11-23T15:20:29Z</time>
      </trkpt>
      <trkpt lat="47.66128" lon="6.18142">
        <ele>252.8</ele>
        <time>2021-11-23T15:20:33Z</time>
      </trkpt>
      <trkpt lat="47.66133" lon="6.18142">
        <ele>252.5</ele>
        <time>2021-11-23T15:20:37Z</time>
      </trkpt>
      <trkpt lat="47.66137" lon="6.18147">
        <ele>252.9</ele>
        <time>2021-11-23T15:20:41Z</time>
      </trkpt>
      <trkpt lat="47.66142" lon="6.18151">
        <ele>253.3</ele>
        <time>2021-11-23T15:20:45Z</time>
      </trkpt>
      <trkpt lat="47.66147" lon="6.18154">
        <ele>253.6</ele>
        <time>2021-11-23T15:20:49Z</time>
      </trkpt>
      <trkpt lat="47.66152" lon="6.18157">
        <ele>254</ele>
        <time>2021-11-23T15:20:53Z</time>
      </trkpt>
      <trkpt lat="47.66157" lon="6.18161">
        <ele>254.4</ele>
        <time>2021-11-23T15:20:56Z</time>
      </trkpt>
      <trkpt lat="47.66161" lon="6.18165">
        <ele>254.8</ele>
        <time>2021-11-23T15:20:59Z</time>
      </trkpt>
      <trkpt lat="47.66166" lon="6.1817">
        <ele>255.3</ele>
        <time>2021-11-23T15:21:02Z</time>
      </trkpt>
      <trkpt lat="47.6617" lon="6.18173">
        <ele>255.5</ele>
        <time>2021-11-23T15:21:07Z</time>
      </trkpt>
      <trkpt lat="47.66175" lon="6.18177">
        <ele>255.7</ele>
        <time>2021-11-23T15:21:08Z</time>
      </trkpt>
      <trkpt lat="47.66179" lon="6.18182">
        <ele>256</ele>
        <time>2021-11-23T15:21:11Z</time>
      </trkpt>
      <trkpt lat="47.66182" lon="6.18187">
        <ele>256.5</ele>
        <time>2021-11-23T15:21:14Z</time>
      </trkpt>
      <trkpt lat="47.66186" lon="6.18192">
        <ele>257</ele>
        <time>2021-11-23T15:21:18Z</time>
      </trkpt>
      <trkpt lat="47.6619" lon="6.18198">
        <ele>257.6</ele>
        <time>2021-11-23T15:21:22Z</time>
      </trkpt>
      <trkpt lat="47.66193" lon="6.18204">
        <ele>258.1</ele>
        <time>2021-11-23T15:21:26Z</time>
      </trkpt>
      <trkpt lat="47.66196" lon="6.1821">
        <ele>258.4</ele>
        <time>2021-11-23T15:21:30Z</time>
      </trkpt>
      <trkpt lat="47.662" lon="6.18214">
        <ele>258.5</ele>
        <time>2021-11-23T15:21:34Z</time>
      </trkpt>
      <trkpt lat="47.66204" lon="6.1822">
        <ele>258.7</ele>
        <time>2021-11-23T15:21:38Z</time>
      </trkpt>
      <trkpt lat="47.66206" lon="6.18226">
        <ele>259.2</ele>
        <time>2021-11-23T15:21:42Z</time>
      </trkpt>
      <trkpt lat="47.6621" lon="6.18231">
        <ele>259.3</ele>
        <time>2021-11-23T15:21:46Z</time>
      </trkpt>
      <trkpt lat="47.66213" lon="6.18237">
        <ele>259.6</ele>
        <time>2021-11-23T15:21:50Z</time>
      </trkpt>
      <trkpt lat="47.66217" lon="6.18242">
        <ele>259.8</ele>
        <time>2021-11-23T15:21:53Z</time>
      </trkpt>
      <trkpt lat="47.66219" lon="6.18248">
        <ele>260.1</ele>
        <time>2021-11-23T15:21:57Z</time>
      </trkpt>
      <trkpt lat="47.66222" lon="6.18254">
        <ele>260.5</ele>
        <time>2021-11-23T15:22:01Z</time>
      </trkpt>
      <trkpt lat="47.66224" lon="6.18262">
        <ele>261.1</ele>
        <time>2021-11-23T15:22:06Z</time>
      </trkpt>
      <trkpt lat="47.66227" lon="6.18268">
        <ele>261.4</ele>
        <time>2021-11-23T15:22:10Z</time>
      </trkpt>
      <trkpt lat="47.66229" lon="6.18275">
        <ele>261.9</ele>
        <time>2021-11-23T15:22:14Z</time>
      </trkpt>
      <trkpt lat="47.6623" lon="6.18282">
        <ele>262.5</ele>
        <time>2021-11-23T15:22:18Z</time>
      </trkpt>
      <trkpt lat="47.66228" lon="6.18289">
        <ele>263.1</ele>
        <time>2021-11-23T15:22:24Z</time>
      </trkpt>
      <trkpt lat="47.66226" lon="6.18294">
        <ele>263.8</ele>
        <time>2021-11-23T15:22:29Z</time>
      </trkpt>
      <trkpt lat="47.66224" lon="6.183">
        <ele>264.5</ele>
        <time>2021-11-23T15:22:33Z</time>
      </trkpt>
      <trkpt lat="47.66219" lon="6.18302">
        <ele>265.1</ele>
        <time>2021-11-23T15:22:38Z</time>
      </trkpt>
      <trkpt lat="47.66214" lon="6.18302">
        <ele>265.6</ele>
        <time>2021-11-23T15:22:40Z</time>
      </trkpt>
      <trkpt lat="47.66208" lon="6.18304">
        <ele>266.4</ele>
        <time>2021-11-23T15:22:44Z</time>
      </trkpt>
      <trkpt lat="47.66203" lon="6.18302">
        <ele>266.7</ele>
        <time>2021-11-23T15:22:49Z</time>
      </trkpt>
      <trkpt lat="47.66196" lon="6.18297">
        <ele>266.9</ele>
        <time>2021-11-23T15:22:51Z</time>
      </trkpt>
      <trkpt lat="47.66191" lon="6.18296">
        <ele>267.4</ele>
        <time>2021-11-23T15:22:54Z</time>
      </trkpt>
      <trkpt lat="47.66186" lon="6.18294">
        <ele>267.7</ele>
        <time>2021-11-23T15:22:57Z</time>
      </trkpt>
      <trkpt lat="47.66181" lon="6.18291">
        <ele>268.2</ele>
        <time>2021-11-23T15:23:01Z</time>
      </trkpt>
      <trkpt lat="47.66176" lon="6.18292">
        <ele>268.8</ele>
        <time>2021-11-23T15:23:05Z</time>
      </trkpt>
      <trkpt lat="47.66171" lon="6.18288">
        <ele>269.1</ele>
        <time>2021-11-23T15:23:09Z</time>
      </trkpt>
      <trkpt lat="47.66167" lon="6.18284">
        <ele>269.3</ele>
        <time>2021-11-23T15:23:12Z</time>
      </trkpt>
      <trkpt lat="47.66161" lon="6.18282">
        <ele>269.7</ele>
        <time>2021-11-23T15:23:16Z</time>
      </trkpt>
      <trkpt lat="47.66157" lon="6.1828">
        <ele>269.9</ele>
        <time>2021-11-23T15:23:19Z</time>
      </trkpt>
      <trkpt lat="47.66152" lon="6.18279">
        <ele>270.1</ele>
        <time>2021-11-23T15:23:22Z</time>
      </trkpt>
      <trkpt lat="47.66147" lon="6.18276">
        <ele>270.2</ele>
        <time>2021-11-23T15:23:25Z</time>
      </trkpt>
      <trkpt lat="47.66143" lon="6.18274">
        <ele>270.3</ele>
        <time>2021-11-23T15:23:28Z</time>
      </trkpt>
      <trkpt lat="47.66138" lon="6.18271">
        <ele>270.3</ele>
        <time>2021-11-23T15:23:31Z</time>
      </trkpt>
      <trkpt lat="47.66133" lon="6.18267">
        <ele>270.2</ele>
        <time>2021-11-23T15:23:36Z</time>
      </trkpt>
      <trkpt lat="47.66127" lon="6.18264">
        <ele>270.2</ele>
        <time>2021-11-23T15:23:37Z</time>
      </trkpt>
      <trkpt lat="47.66121" lon="6.18262">
        <ele>270.3</ele>
        <time>2021-11-23T15:23:40Z</time>
      </trkpt>
      <trkpt lat="47.66115" lon="6.1826">
        <ele>270.5</ele>
        <time>2021-11-23T15:23:43Z</time>
      </trkpt>
      <trkpt lat="47.66109" lon="6.18258">
        <ele>270.6</ele>
        <time>2021-11-23T15:23:45Z</time>
      </trkpt>
      <trkpt lat="47.66104" lon="6.18256">
        <ele>270.5</ele>
        <time>2021-11-23T15:23:50Z</time>
      </trkpt>
      <trkpt lat="47.66093" lon="6.18253">
        <ele>270.3</ele>
        <time>2021-11-23T15:23:53Z</time>
      </trkpt>
      <trkpt lat="47.66087" lon="6.18251">
        <ele>270.1</ele>
        <time>2021-11-23T15:23:56Z</time>
      </trkpt>
      <trkpt lat="47.66081" lon="6.1825">
        <ele>270</ele>
        <time>2021-11-23T15:23:59Z</time>
      </trkpt>
      <trkpt lat="47.66076" lon="6.1825">
        <ele>270</ele>
        <time>2021-11-23T15:24:01Z</time>
      </trkpt>
      <trkpt lat="47.66071" lon="6.18249">
        <ele>269.9</ele>
        <time>2021-11-23T15:24:03Z</time>
      </trkpt>
      <trkpt lat="47.66066" lon="6.18248">
        <ele>269.9</ele>
        <time>2021-11-23T15:24:07Z</time>
      </trkpt>
      <trkpt lat="47.66054" lon="6.18249">
        <ele>269.9</ele>
        <time>2021-11-23T15:24:11Z</time>
      </trkpt>
      <trkpt lat="47.66043" lon="6.1825">
        <ele>270</ele>
        <time>2021-11-23T15:24:14Z</time>
      </trkpt>
      <trkpt lat="47.66033" lon="6.18251">
        <ele>270</ele>
        <time>2021-11-23T15:24:17Z</time>
      </trkpt>
      <trkpt lat="47.66023" lon="6.18253">
        <ele>270.2</ele>
        <time>2021-11-23T15:24:21Z</time>
      </trkpt>
      <trkpt lat="47.66019" lon="6.18254">
        <ele>270.3</ele>
        <time>2021-11-23T15:24:23Z</time>
      </trkpt>
      <trkpt lat="47.66012" lon="6.18253">
        <ele>270.2</ele>
        <time>2021-11-23T15:24:25Z</time>
      </trkpt>
      <trkpt lat="47.66006" lon="6.18247">
        <ele>269.8</ele>
        <time>2021-11-23T15:24:27Z</time>
      </trkpt>
      <trkpt lat="47.66002" lon="6.18242">
        <ele>269.4</ele>
        <time>2021-11-23T15:24:28Z</time>
      </trkpt>
      <trkpt lat="47.65992" lon="6.18235">
        <ele>268.5</ele>
        <time>2021-11-23T15:24:29Z</time>
      </trkpt>
      <trkpt lat="47.65986" lon="6.18232">
        <ele>268</ele>
        <time>2021-11-23T15:24:32Z</time>
      </trkpt>
      <trkpt lat="47.65978" lon="6.18229">
        <ele>267.5</ele>
        <time>2021-11-23T15:24:34Z</time>
      </trkpt>
      <trkpt lat="47.65972" lon="6.18227">
        <ele>267.2</ele>
        <time>2021-11-23T15:24:35Z</time>
      </trkpt>
      <trkpt lat="47.65966" lon="6.18226">
        <ele>266.9</ele>
        <time>2021-11-23T15:24:36Z</time>
      </trkpt>
      <trkpt lat="47.65941" lon="6.18211">
        <ele>265.1</ele>
        <time>2021-11-23T15:24:37Z</time>
      </trkpt>
      <trkpt lat="47.65934" lon="6.18204">
        <ele>264.6</ele>
        <time>2021-11-23T15:24:38Z</time>
      </trkpt>
      <trkpt lat="47.65928" lon="6.18198">
        <ele>264.2</ele>
        <time>2021-11-23T15:24:39Z</time>
      </trkpt>
      <trkpt lat="47.65921" lon="6.18194">
        <ele>263.9</ele>
        <time>2021-11-23T15:24:40Z</time>
      </trkpt>
      <trkpt lat="47.65913" lon="6.18192">
        <ele>263.8</ele>
        <time>2021-11-23T15:24:41Z</time>
      </trkpt>
      <trkpt lat="47.65906" lon="6.18191">
        <ele>263.7</ele>
        <time>2021-11-23T15:24:42Z</time>
      </trkpt>
      <trkpt lat="47.65898" lon="6.1819">
        <ele>263.7</ele>
        <time>2021-11-23T15:24:43Z</time>
      </trkpt>
      <trkpt lat="47.65891" lon="6.18189">
        <ele>263.6</ele>
        <time>2021-11-23T15:24:44Z</time>
      </trkpt>
      <trkpt lat="47.65885" lon="6.18189">
        <ele>263.6</ele>
        <time>2021-11-23T15:24:45Z</time>
      </trkpt>
      <trkpt lat="47.65878" lon="6.18186">
        <ele>263.5</ele>
        <time>2021-11-23T15:24:46Z</time>
      </trkpt>
      <trkpt lat="47.65873" lon="6.18183">
        <ele>263.4</ele>
        <time>2021-11-23T15:24:47Z</time>
      </trkpt>
      <trkpt lat="47.65867" lon="6.1818">
        <ele>263.4</ele>
        <time>2021-11-23T15:24:48Z</time>
      </trkpt>
      <trkpt lat="47.65862" lon="6.18178">
        <ele>263.4</ele>
        <time>2021-11-23T15:24:49Z</time>
      </trkpt>
      <trkpt lat="47.65857" lon="6.18175">
        <ele>263.3</ele>
        <time>2021-11-23T15:24:50Z</time>
      </trkpt>
      <trkpt lat="47.65852" lon="6.18174">
        <ele>263.3</ele>
        <time>2021-11-23T15:24:51Z</time>
      </trkpt>
      <trkpt lat="47.65847" lon="6.18177">
        <ele>263.4</ele>
        <time>2021-11-23T15:24:52Z</time>
      </trkpt>
      <trkpt lat="47.65844" lon="6.18182">
        <ele>263.5</ele>
        <time>2021-11-23T15:24:53Z</time>
      </trkpt>
      <trkpt lat="47.65842" lon="6.18192">
        <ele>263.9</ele>
        <time>2021-11-23T15:24:55Z</time>
      </trkpt>
      <trkpt lat="47.65842" lon="6.18202">
        <ele>264.5</ele>
        <time>2021-11-23T15:24:57Z</time>
      </trkpt>
      <trkpt lat="47.65843" lon="6.1821">
        <ele>265.1</ele>
        <time>2021-11-23T15:24:59Z</time>
      </trkpt>
      <trkpt lat="47.65845" lon="6.18219">
        <ele>265.8</ele>
        <time>2021-11-23T15:25:03Z</time>
      </trkpt>
      <trkpt lat="47.65845" lon="6.18226">
        <ele>266.2</ele>
        <time>2021-11-23T15:25:05Z</time>
      </trkpt>
      <trkpt lat="47.65845" lon="6.18234">
        <ele>266.7</ele>
        <time>2021-11-23T15:25:09Z</time>
      </trkpt>
      <trkpt lat="47.65846" lon="6.18243">
        <ele>267.2</ele>
        <time>2021-11-23T15:25:13Z</time>
      </trkpt>
      <trkpt lat="47.65845" lon="6.1825">
        <ele>267.6</ele>
        <time>2021-11-23T15:25:16Z</time>
      </trkpt>
      <trkpt lat="47.65843" lon="6.18257">
        <ele>268</ele>
        <time>2021-11-23T15:25:19Z</time>
      </trkpt>
      <trkpt lat="47.65842" lon="6.18264">
        <ele>268.4</ele>
        <time>2021-11-23T15:25:22Z</time>
      </trkpt>
      <trkpt lat="47.65841" lon="6.18271">
        <ele>268.7</ele>
        <time>2021-11-23T15:25:25Z</time>
      </trkpt>
      <trkpt lat="47.65841" lon="6.18279">
        <ele>269.1</ele>
        <time>2021-11-23T15:25:28Z</time>
      </trkpt>
      <trkpt lat="47.65841" lon="6.18286">
        <ele>269.4</ele>
        <time>2021-11-23T15:25:31Z</time>
      </trkpt>
      <trkpt lat="47.65841" lon="6.18295">
        <ele>269.8</ele>
        <time>2021-11-23T15:25:34Z</time>
      </trkpt>
      <trkpt lat="47.65842" lon="6.18303">
        <ele>270.2</ele>
        <time>2021-11-23T15:25:37Z</time>
      </trkpt>
      <trkpt lat="47.65844" lon="6.18311">
        <ele>270.7</ele>
        <time>2021-11-23T15:25:40Z</time>
      </trkpt>
      <trkpt lat="47.65844" lon="6.18319">
        <ele>271.2</ele>
        <time>2021-11-23T15:25:44Z</time>
      </trkpt>
      <trkpt lat="47.65845" lon="6.18329">
        <ele>271.8</ele>
        <time>2021-11-23T15:25:47Z</time>
      </trkpt>
      <trkpt lat="47.65846" lon="6.18337">
        <ele>272.2</ele>
        <time>2021-11-23T15:25:50Z</time>
      </trkpt>
      <trkpt lat="47.65847" lon="6.18345">
        <ele>272.8</ele>
        <time>2021-11-23T15:25:54Z</time>
      </trkpt>
      <trkpt lat="47.65847" lon="6.18352">
        <ele>273.4</ele>
        <time>2021-11-23T15:25:58Z</time>
      </trkpt>
      <trkpt lat="47.65848" lon="6.18359">
        <ele>273.9</ele>
        <time>2021-11-23T15:26:02Z</time>
      </trkpt>
      <trkpt lat="47.6585" lon="6.18365">
        <ele>274.2</ele>
        <time>2021-11-23T15:26:06Z</time>
      </trkpt>
      <trkpt lat="47.6585" lon="6.18372">
        <ele>274.6</ele>
        <time>2021-11-23T15:26:10Z</time>
      </trkpt>
      <trkpt lat="47.65852" lon="6.1838">
        <ele>275.1</ele>
        <time>2021-11-23T15:26:15Z</time>
      </trkpt>
      <trkpt lat="47.65852" lon="6.18387">
        <ele>275.6</ele>
        <time>2021-11-23T15:26:19Z</time>
      </trkpt>
      <trkpt lat="47.65851" lon="6.18394">
        <ele>276</ele>
        <time>2021-11-23T15:26:23Z</time>
      </trkpt>
      <trkpt lat="47.65851" lon="6.18401">
        <ele>276.5</ele>
        <time>2021-11-23T15:26:27Z</time>
      </trkpt>
      <trkpt lat="47.65854" lon="6.18407">
        <ele>277</ele>
        <time>2021-11-23T15:26:31Z</time>
      </trkpt>
      <trkpt lat="47.65851" lon="6.18415">
        <ele>277.5</ele>
        <time>2021-11-23T15:26:36Z</time>
      </trkpt>
      <trkpt lat="47.65849" lon="6.18424">
        <ele>278.1</ele>
        <time>2021-11-23T15:26:43Z</time>
      </trkpt>
      <trkpt lat="47.6585" lon="6.18432">
        <ele>278.7</ele>
        <time>2021-11-23T15:26:47Z</time>
      </trkpt>
      <trkpt lat="47.65849" lon="6.18438">
        <ele>279.1</ele>
        <time>2021-11-23T15:26:51Z</time>
      </trkpt>
      <trkpt lat="47.65848" lon="6.18447">
        <ele>279.7</ele>
        <time>2021-11-23T15:26:55Z</time>
      </trkpt>
      <trkpt lat="47.65848" lon="6.18455">
        <ele>280.5</ele>
        <time>2021-11-23T15:26:59Z</time>
      </trkpt>
      <trkpt lat="47.65847" lon="6.18462">
        <ele>281</ele>
        <time>2021-11-23T15:27:03Z</time>
      </trkpt>
      <trkpt lat="47.65843" lon="6.18466">
        <ele>281.4</ele>
        <time>2021-11-23T15:27:10Z</time>
      </trkpt>
      <trkpt lat="47.65842" lon="6.18473">
        <ele>282.1</ele>
        <time>2021-11-23T15:27:14Z</time>
      </trkpt>
      <trkpt lat="47.65837" lon="6.18478">
        <ele>282.7</ele>
        <time>2021-11-23T15:27:21Z</time>
      </trkpt>
      <trkpt lat="47.65833" lon="6.18484">
        <ele>283.3</ele>
        <time>2021-11-23T15:27:25Z</time>
      </trkpt>
      <trkpt lat="47.65829" lon="6.18489">
        <ele>283.9</ele>
        <time>2021-11-23T15:27:28Z</time>
      </trkpt>
      <trkpt lat="47.65824" lon="6.18491">
        <ele>284.2</ele>
        <time>2021-11-23T15:27:31Z</time>
      </trkpt>
      <trkpt lat="47.6582" lon="6.18492">
        <ele>284.5</ele>
        <time>2021-11-23T15:27:36Z</time>
      </trkpt>
      <trkpt lat="47.65814" lon="6.18493">
        <ele>284.7</ele>
        <time>2021-11-23T15:27:41Z</time>
      </trkpt>
      <trkpt lat="47.65809" lon="6.18492">
        <ele>284.8</ele>
        <time>2021-11-23T15:27:42Z</time>
      </trkpt>
      <trkpt lat="47.65803" lon="6.18492">
        <ele>284.8</ele>
        <time>2021-11-23T15:27:49Z</time>
      </trkpt>
      <trkpt lat="47.65798" lon="6.18493">
        <ele>285</ele>
        <time>2021-11-23T15:27:52Z</time>
      </trkpt>
      <trkpt lat="47.65793" lon="6.18492">
        <ele>285</ele>
        <time>2021-11-23T15:27:56Z</time>
      </trkpt>
      <trkpt lat="47.65788" lon="6.1849">
        <ele>284.7</ele>
        <time>2021-11-23T15:27:59Z</time>
      </trkpt>
      <trkpt lat="47.65784" lon="6.18487">
        <ele>284.5</ele>
        <time>2021-11-23T15:27:59Z</time>
      </trkpt>
      <trkpt lat="47.65779" lon="6.18485">
        <ele>284.3</ele>
        <time>2021-11-23T15:28:05Z</time>
      </trkpt>
      <trkpt lat="47.65773" lon="6.18484">
        <ele>284.4</ele>
        <time>2021-11-23T15:28:08Z</time>
      </trkpt>
      <trkpt lat="47.65768" lon="6.18486">
        <ele>284.6</ele>
        <time>2021-11-23T15:28:11Z</time>
      </trkpt>
      <trkpt lat="47.65763" lon="6.18488">
        <ele>285</ele>
        <time>2021-11-23T15:28:13Z</time>
      </trkpt>
      <trkpt lat="47.65753" lon="6.18492">
        <ele>285.8</ele>
        <time>2021-11-23T15:28:17Z</time>
      </trkpt>
      <trkpt lat="47.65748" lon="6.18495">
        <ele>286.3</ele>
        <time>2021-11-23T15:28:20Z</time>
      </trkpt>
      <trkpt lat="47.65743" lon="6.18498">
        <ele>286.8</ele>
        <time>2021-11-23T15:28:21Z</time>
      </trkpt>
      <trkpt lat="47.65739" lon="6.18501">
        <ele>287</ele>
        <time>2021-11-23T15:28:28Z</time>
      </trkpt>
      <trkpt lat="47.65734" lon="6.18503">
        <ele>287.2</ele>
        <time>2021-11-23T15:28:33Z</time>
      </trkpt>
      <trkpt lat="47.65729" lon="6.18504">
        <ele>287.3</ele>
        <time>2021-11-23T15:28:37Z</time>
      </trkpt>
      <trkpt lat="47.65723" lon="6.18505">
        <ele>287.4</ele>
        <time>2021-11-23T15:28:40Z</time>
      </trkpt>
      <trkpt lat="47.65718" lon="6.18507">
        <ele>287.5</ele>
        <time>2021-11-23T15:28:42Z</time>
      </trkpt>
      <trkpt lat="47.6571" lon="6.18515">
        <ele>288.1</ele>
        <time>2021-11-23T15:28:44Z</time>
      </trkpt>
      <trkpt lat="47.65706" lon="6.1852">
        <ele>288.4</ele>
        <time>2021-11-23T15:28:50Z</time>
      </trkpt>
      <trkpt lat="47.65702" lon="6.18525">
        <ele>288.8</ele>
        <time>2021-11-23T15:28:53Z</time>
      </trkpt>
      <trkpt lat="47.65698" lon="6.18532">
        <ele>289.3</ele>
        <time>2021-11-23T15:28:53Z</time>
      </trkpt>
      <trkpt lat="47.65695" lon="6.18538">
        <ele>289.8</ele>
        <time>2021-11-23T15:28:58Z</time>
      </trkpt>
      <trkpt lat="47.65692" lon="6.18544">
        <ele>290.1</ele>
        <time>2021-11-23T15:29:02Z</time>
      </trkpt>
      <trkpt lat="47.65689" lon="6.1855">
        <ele>290.4</ele>
        <time>2021-11-23T15:29:02Z</time>
      </trkpt>
      <trkpt lat="47.65684" lon="6.18555">
        <ele>290.6</ele>
        <time>2021-11-23T15:29:08Z</time>
      </trkpt>
      <trkpt lat="47.6568" lon="6.18561">
        <ele>290.7</ele>
        <time>2021-11-23T15:29:09Z</time>
      </trkpt>
      <trkpt lat="47.65675" lon="6.18566">
        <ele>290.7</ele>
        <time>2021-11-23T15:29:15Z</time>
      </trkpt>
      <trkpt lat="47.65671" lon="6.18571">
        <ele>290.7</ele>
        <time>2021-11-23T15:29:18Z</time>
      </trkpt>
      <trkpt lat="47.65667" lon="6.18574">
        <ele>290.7</ele>
        <time>2021-11-23T15:29:18Z</time>
      </trkpt>
      <trkpt lat="47.65662" lon="6.18576">
        <ele>290.4</ele>
        <time>2021-11-23T15:29:24Z</time>
      </trkpt>
      <trkpt lat="47.65656" lon="6.18579">
        <ele>290.1</ele>
        <time>2021-11-23T15:29:27Z</time>
      </trkpt>
      <trkpt lat="47.65647" lon="6.18587">
        <ele>289.7</ele>
        <time>2021-11-23T15:29:32Z</time>
      </trkpt>
      <trkpt lat="47.65642" lon="6.18591">
        <ele>289.5</ele>
        <time>2021-11-23T15:29:35Z</time>
      </trkpt>
      <trkpt lat="47.65634" lon="6.18602">
        <ele>289.2</ele>
        <time>2021-11-23T15:29:41Z</time>
      </trkpt>
      <trkpt lat="47.6563" lon="6.18609">
        <ele>289</ele>
        <time>2021-11-23T15:29:44Z</time>
      </trkpt>
      <trkpt lat="47.65626" lon="6.18615">
        <ele>288.8</ele>
        <time>2021-11-23T15:29:47Z</time>
      </trkpt>
      <trkpt lat="47.65622" lon="6.18622">
        <ele>288.5</ele>
        <time>2021-11-23T15:29:50Z</time>
      </trkpt>
      <trkpt lat="47.65617" lon="6.18626">
        <ele>288.2</ele>
        <time>2021-11-23T15:29:52Z</time>
      </trkpt>
      <trkpt lat="47.65613" lon="6.18632">
        <ele>287.9</ele>
        <time>2021-11-23T15:29:55Z</time>
      </trkpt>
      <trkpt lat="47.65609" lon="6.18636">
        <ele>287.7</ele>
        <time>2021-11-23T15:29:57Z</time>
      </trkpt>
      <trkpt lat="47.65606" lon="6.18641">
        <ele>287.7</ele>
        <time>2021-11-23T15:29:57Z</time>
      </trkpt>
      <trkpt lat="47.65601" lon="6.18646">
        <ele>287.5</ele>
        <time>2021-11-23T15:30:00Z</time>
      </trkpt>
      <trkpt lat="47.65597" lon="6.18653">
        <ele>287.2</ele>
        <time>2021-11-23T15:30:07Z</time>
      </trkpt>
      <trkpt lat="47.65592" lon="6.18656">
        <ele>286.8</ele>
        <time>2021-11-23T15:30:10Z</time>
      </trkpt>
      <trkpt lat="47.65587" lon="6.1866">
        <ele>286.3</ele>
        <time>2021-11-23T15:30:13Z</time>
      </trkpt>
      <trkpt lat="47.65581" lon="6.18663">
        <ele>285.8</ele>
        <time>2021-11-23T15:30:16Z</time>
      </trkpt>
      <trkpt lat="47.65573" lon="6.18669">
        <ele>285.3</ele>
        <time>2021-11-23T15:30:17Z</time>
      </trkpt>
      <trkpt lat="47.65568" lon="6.18671">
        <ele>285.1</ele>
        <time>2021-11-23T15:30:19Z</time>
      </trkpt>
      <trkpt lat="47.65562" lon="6.18674">
        <ele>284.7</ele>
        <time>2021-11-23T15:30:24Z</time>
      </trkpt>
      <trkpt lat="47.65557" lon="6.18676">
        <ele>284.4</ele>
        <time>2021-11-23T15:30:27Z</time>
      </trkpt>
      <trkpt lat="47.65552" lon="6.18678">
        <ele>284.1</ele>
        <time>2021-11-23T15:30:29Z</time>
      </trkpt>
      <trkpt lat="47.65546" lon="6.18682">
        <ele>283.8</ele>
        <time>2021-11-23T15:30:31Z</time>
      </trkpt>
      <trkpt lat="47.65535" lon="6.18688">
        <ele>283.3</ele>
        <time>2021-11-23T15:30:35Z</time>
      </trkpt>
      <trkpt lat="47.6553" lon="6.18691">
        <ele>283.1</ele>
        <time>2021-11-23T15:30:38Z</time>
      </trkpt>
      <trkpt lat="47.65526" lon="6.18696">
        <ele>282.8</ele>
        <time>2021-11-23T15:30:41Z</time>
      </trkpt>
      <trkpt lat="47.65522" lon="6.187">
        <ele>282.4</ele>
        <time>2021-11-23T15:30:43Z</time>
      </trkpt>
      <trkpt lat="47.65516" lon="6.18704">
        <ele>281.9</ele>
        <time>2021-11-23T15:30:46Z</time>
      </trkpt>
      <trkpt lat="47.6551" lon="6.18708">
        <ele>281.4</ele>
        <time>2021-11-23T15:30:46Z</time>
      </trkpt>
      <trkpt lat="47.65505" lon="6.18712">
        <ele>281.1</ele>
        <time>2021-11-23T15:30:52Z</time>
      </trkpt>
      <trkpt lat="47.655" lon="6.18716">
        <ele>280.8</ele>
        <time>2021-11-23T15:30:55Z</time>
      </trkpt>
      <trkpt lat="47.65495" lon="6.1872">
        <ele>280.6</ele>
        <time>2021-11-23T15:30:56Z</time>
      </trkpt>
      <trkpt lat="47.65491" lon="6.18723">
        <ele>280.4</ele>
        <time>2021-11-23T15:30:58Z</time>
      </trkpt>
      <trkpt lat="47.65488" lon="6.18727">
        <ele>280.3</ele>
        <time>2021-11-23T15:31:01Z</time>
      </trkpt>
      <trkpt lat="47.65483" lon="6.18732">
        <ele>280.3</ele>
        <time>2021-11-23T15:31:04Z</time>
      </trkpt>
      <trkpt lat="47.65479" lon="6.18737">
        <ele>280.4</ele>
        <time>2021-11-23T15:31:06Z</time>
      </trkpt>
      <trkpt lat="47.65475" lon="6.18741">
        <ele>280.5</ele>
        <time>2021-11-23T15:31:09Z</time>
      </trkpt>
      <trkpt lat="47.65471" lon="6.18747">
        <ele>280.8</ele>
        <time>2021-11-23T15:31:12Z</time>
      </trkpt>
      <trkpt lat="47.65468" lon="6.18753">
        <ele>281</ele>
        <time>2021-11-23T15:31:15Z</time>
      </trkpt>
      <trkpt lat="47.65464" lon="6.18757">
        <ele>281</ele>
        <time>2021-11-23T15:31:15Z</time>
      </trkpt>
      <trkpt lat="47.6546" lon="6.18763">
        <ele>281</ele>
        <time>2021-11-23T15:31:21Z</time>
      </trkpt>
      <trkpt lat="47.65456" lon="6.18768">
        <ele>281.1</ele>
        <time>2021-11-23T15:31:25Z</time>
      </trkpt>
      <trkpt lat="47.65452" lon="6.18773">
        <ele>281.1</ele>
        <time>2021-11-23T15:31:25Z</time>
      </trkpt>
      <trkpt lat="47.65448" lon="6.18779">
        <ele>281.2</ele>
        <time>2021-11-23T15:31:32Z</time>
      </trkpt>
      <trkpt lat="47.65445" lon="6.18783">
        <ele>281.2</ele>
        <time>2021-11-23T15:31:35Z</time>
      </trkpt>
      <trkpt lat="47.6544" lon="6.18788">
        <ele>281.2</ele>
        <time>2021-11-23T15:31:39Z</time>
      </trkpt>
      <trkpt lat="47.65436" lon="6.18793">
        <ele>281.2</ele>
        <time>2021-11-23T15:31:40Z</time>
      </trkpt>
      <trkpt lat="47.65432" lon="6.18799">
        <ele>281.3</ele>
        <time>2021-11-23T15:31:47Z</time>
      </trkpt>
      <trkpt lat="47.65428" lon="6.18804">
        <ele>281.3</ele>
        <time>2021-11-23T15:31:49Z</time>
      </trkpt>
      <trkpt lat="47.65425" lon="6.18808">
        <ele>281.3</ele>
        <time>2021-11-23T15:31:52Z</time>
      </trkpt>
      <trkpt lat="47.6542" lon="6.18813">
        <ele>281.1</ele>
        <time>2021-11-23T15:31:54Z</time>
      </trkpt>
      <trkpt lat="47.65416" lon="6.18816">
        <ele>281</ele>
        <time>2021-11-23T15:31:57Z</time>
      </trkpt>
      <trkpt lat="47.65412" lon="6.1882">
        <ele>280.7</ele>
        <time>2021-11-23T15:31:59Z</time>
      </trkpt>
      <trkpt lat="47.65407" lon="6.18822">
        <ele>280.5</ele>
        <time>2021-11-23T15:32:03Z</time>
      </trkpt>
      <trkpt lat="47.65402" lon="6.1882">
        <ele>280.2</ele>
        <time>2021-11-23T15:32:05Z</time>
      </trkpt>
      <trkpt lat="47.65399" lon="6.18815">
        <ele>279.9</ele>
        <time>2021-11-23T15:32:08Z</time>
      </trkpt>
      <trkpt lat="47.65396" lon="6.18808">
        <ele>279.6</ele>
        <time>2021-11-23T15:32:10Z</time>
      </trkpt>
      <trkpt lat="47.65392" lon="6.188">
        <ele>279</ele>
        <time>2021-11-23T15:32:12Z</time>
      </trkpt>
      <trkpt lat="47.65389" lon="6.18794">
        <ele>278.6</ele>
        <time>2021-11-23T15:32:13Z</time>
      </trkpt>
      <trkpt lat="47.65381" lon="6.18779">
        <ele>277.8</ele>
        <time>2021-11-23T15:32:15Z</time>
      </trkpt>
      <trkpt lat="47.65377" lon="6.18772">
        <ele>277.5</ele>
        <time>2021-11-23T15:32:17Z</time>
      </trkpt>
      <trkpt lat="47.65368" lon="6.18755">
        <ele>276.7</ele>
        <time>2021-11-23T15:32:19Z</time>
      </trkpt>
      <trkpt lat="47.65357" lon="6.18734">
        <ele>275.9</ele>
        <time>2021-11-23T15:32:23Z</time>
      </trkpt>
      <trkpt lat="47.65354" lon="6.18726">
        <ele>275.7</ele>
        <time>2021-11-23T15:32:24Z</time>
      </trkpt>
      <trkpt lat="47.65338" lon="6.18698">
        <ele>274.3</ele>
        <time>2021-11-23T15:32:24Z</time>
      </trkpt>
      <trkpt lat="47.65334" lon="6.18691">
        <ele>274</ele>
        <time>2021-11-23T15:32:25Z</time>
      </trkpt>
      <trkpt lat="47.6533" lon="6.18684">
        <ele>273.9</ele>
        <time>2021-11-23T15:32:26Z</time>
      </trkpt>
      <trkpt lat="47.65326" lon="6.18677">
        <ele>273.7</ele>
        <time>2021-11-23T15:32:27Z</time>
      </trkpt>
      <trkpt lat="47.65322" lon="6.18671">
        <ele>273.6</ele>
        <time>2021-11-23T15:32:28Z</time>
      </trkpt>
      <trkpt lat="47.65317" lon="6.18664">
        <ele>273.3</ele>
        <time>2021-11-23T15:32:29Z</time>
      </trkpt>
      <trkpt lat="47.65312" lon="6.18658">
        <ele>272.9</ele>
        <time>2021-11-23T15:32:30Z</time>
      </trkpt>
      <trkpt lat="47.65307" lon="6.18652">
        <ele>272.5</ele>
        <time>2021-11-23T15:32:31Z</time>
      </trkpt>
      <trkpt lat="47.65302" lon="6.18645">
        <ele>272.1</ele>
        <time>2021-11-23T15:32:32Z</time>
      </trkpt>
      <trkpt lat="47.65297" lon="6.18639">
        <ele>271.7</ele>
        <time>2021-11-23T15:32:33Z</time>
      </trkpt>
      <trkpt lat="47.65292" lon="6.18632">
        <ele>271.4</ele>
        <time>2021-11-23T15:32:34Z</time>
      </trkpt>
      <trkpt lat="47.65287" lon="6.18625">
        <ele>271.2</ele>
        <time>2021-11-23T15:32:35Z</time>
      </trkpt>
      <trkpt lat="47.65282" lon="6.18617">
        <ele>271</ele>
        <time>2021-11-23T15:32:36Z</time>
      </trkpt>
      <trkpt lat="47.65277" lon="6.1861">
        <ele>270.9</ele>
        <time>2021-11-23T15:32:37Z</time>
      </trkpt>
      <trkpt lat="47.65273" lon="6.18602">
        <ele>270.4</ele>
        <time>2021-11-23T15:32:38Z</time>
      </trkpt>
      <trkpt lat="47.65268" lon="6.18595">
        <ele>269.9</ele>
        <time>2021-11-23T15:32:39Z</time>
      </trkpt>
      <trkpt lat="47.65264" lon="6.18587">
        <ele>269.6</ele>
        <time>2021-11-23T15:32:40Z</time>
      </trkpt>
      <trkpt lat="47.65259" lon="6.18579">
        <ele>269.3</ele>
        <time>2021-11-23T15:32:41Z</time>
      </trkpt>
      <trkpt lat="47.65255" lon="6.18571">
        <ele>269.1</ele>
        <time>2021-11-23T15:32:42Z</time>
      </trkpt>
      <trkpt lat="47.65252" lon="6.18562">
        <ele>269</ele>
        <time>2021-11-23T15:32:43Z</time>
      </trkpt>
      <trkpt lat="47.65248" lon="6.18554">
        <ele>268.8</ele>
        <time>2021-11-23T15:32:44Z</time>
      </trkpt>
      <trkpt lat="47.65244" lon="6.18546">
        <ele>268.3</ele>
        <time>2021-11-23T15:32:45Z</time>
      </trkpt>
      <trkpt lat="47.6524" lon="6.18538">
        <ele>267.9</ele>
        <time>2021-11-23T15:32:46Z</time>
      </trkpt>
      <trkpt lat="47.65236" lon="6.18531">
        <ele>267.6</ele>
        <time>2021-11-23T15:32:47Z</time>
      </trkpt>
      <trkpt lat="47.65232" lon="6.18523">
        <ele>267.3</ele>
        <time>2021-11-23T15:32:48Z</time>
      </trkpt>
      <trkpt lat="47.65229" lon="6.18515">
        <ele>267.1</ele>
        <time>2021-11-23T15:32:49Z</time>
      </trkpt>
      <trkpt lat="47.65225" lon="6.18506">
        <ele>267</ele>
        <time>2021-11-23T15:32:50Z</time>
      </trkpt>
      <trkpt lat="47.65221" lon="6.18499">
        <ele>266.9</ele>
        <time>2021-11-23T15:32:51Z</time>
      </trkpt>
      <trkpt lat="47.65217" lon="6.18491">
        <ele>266.3</ele>
        <time>2021-11-23T15:32:52Z</time>
      </trkpt>
      <trkpt lat="47.65212" lon="6.18484">
        <ele>265.9</ele>
        <time>2021-11-23T15:32:53Z</time>
      </trkpt>
      <trkpt lat="47.65208" lon="6.18477">
        <ele>265.6</ele>
        <time>2021-11-23T15:32:54Z</time>
      </trkpt>
      <trkpt lat="47.65204" lon="6.18469">
        <ele>265.2</ele>
        <time>2021-11-23T15:32:55Z</time>
      </trkpt>
      <trkpt lat="47.65199" lon="6.18462">
        <ele>264.8</ele>
        <time>2021-11-23T15:32:56Z</time>
      </trkpt>
      <trkpt lat="47.65194" lon="6.18455">
        <ele>264.4</ele>
        <time>2021-11-23T15:32:57Z</time>
      </trkpt>
      <trkpt lat="47.65189" lon="6.18448">
        <ele>263.9</ele>
        <time>2021-11-23T15:32:58Z</time>
      </trkpt>
      <trkpt lat="47.65184" lon="6.18442">
        <ele>263.6</ele>
        <time>2021-11-23T15:32:59Z</time>
      </trkpt>
      <trkpt lat="47.65179" lon="6.18435">
        <ele>263.4</ele>
        <time>2021-11-23T15:33:00Z</time>
      </trkpt>
      <trkpt lat="47.65173" lon="6.1843">
        <ele>263.2</ele>
        <time>2021-11-23T15:33:01Z</time>
      </trkpt>
      <trkpt lat="47.65167" lon="6.18425">
        <ele>263</ele>
        <time>2021-11-23T15:33:02Z</time>
      </trkpt>
      <trkpt lat="47.65161" lon="6.1842">
        <ele>262.8</ele>
        <time>2021-11-23T15:33:03Z</time>
      </trkpt>
      <trkpt lat="47.65155" lon="6.18416">
        <ele>262.6</ele>
        <time>2021-11-23T15:33:04Z</time>
      </trkpt>
      <trkpt lat="47.65149" lon="6.18412">
        <ele>262.3</ele>
        <time>2021-11-23T15:33:05Z</time>
      </trkpt>
      <trkpt lat="47.65143" lon="6.18408">
        <ele>262.1</ele>
        <time>2021-11-23T15:33:06Z</time>
      </trkpt>
      <trkpt lat="47.65137" lon="6.18405">
        <ele>261.9</ele>
        <time>2021-11-23T15:33:07Z</time>
      </trkpt>
      <trkpt lat="47.65131" lon="6.184">
        <ele>261.4</ele>
        <time>2021-11-23T15:33:08Z</time>
      </trkpt>
      <trkpt lat="47.65125" lon="6.18394">
        <ele>261</ele>
        <time>2021-11-23T15:33:09Z</time>
      </trkpt>
      <trkpt lat="47.65119" lon="6.18387">
        <ele>260.6</ele>
        <time>2021-11-23T15:33:10Z</time>
      </trkpt>
      <trkpt lat="47.65113" lon="6.1838">
        <ele>260.1</ele>
        <time>2021-11-23T15:33:11Z</time>
      </trkpt>
      <trkpt lat="47.65107" lon="6.18373">
        <ele>259.9</ele>
        <time>2021-11-23T15:33:12Z</time>
      </trkpt>
      <trkpt lat="47.65101" lon="6.18367">
        <ele>259.6</ele>
        <time>2021-11-23T15:33:13Z</time>
      </trkpt>
      <trkpt lat="47.65094" lon="6.1836">
        <ele>259.4</ele>
        <time>2021-11-23T15:33:14Z</time>
      </trkpt>
      <trkpt lat="47.65088" lon="6.18354">
        <ele>258.9</ele>
        <time>2021-11-23T15:33:15Z</time>
      </trkpt>
      <trkpt lat="47.65082" lon="6.18348">
        <ele>258.5</ele>
        <time>2021-11-23T15:33:16Z</time>
      </trkpt>
      <trkpt lat="47.65075" lon="6.18342">
        <ele>258.2</ele>
        <time>2021-11-23T15:33:17Z</time>
      </trkpt>
      <trkpt lat="47.65069" lon="6.18336">
        <ele>258</ele>
        <time>2021-11-23T15:33:18Z</time>
      </trkpt>
      <trkpt lat="47.65062" lon="6.18331">
        <ele>257.8</ele>
        <time>2021-11-23T15:33:19Z</time>
      </trkpt>
      <trkpt lat="47.65055" lon="6.18327">
        <ele>257.3</ele>
        <time>2021-11-23T15:33:20Z</time>
      </trkpt>
      <trkpt lat="47.65048" lon="6.18325">
        <ele>256.9</ele>
        <time>2021-11-23T15:33:21Z</time>
      </trkpt>
      <trkpt lat="47.65041" lon="6.18323">
        <ele>256.5</ele>
        <time>2021-11-23T15:33:22Z</time>
      </trkpt>
      <trkpt lat="47.65034" lon="6.18322">
        <ele>256.3</ele>
        <time>2021-11-23T15:33:23Z</time>
      </trkpt>
      <trkpt lat="47.65027" lon="6.18321">
        <ele>256.1</ele>
        <time>2021-11-23T15:33:24Z</time>
      </trkpt>
      <trkpt lat="47.6502" lon="6.1832">
        <ele>255.9</ele>
        <time>2021-11-23T15:33:25Z</time>
      </trkpt>
      <trkpt lat="47.65014" lon="6.18319">
        <ele>255.8</ele>
        <time>2021-11-23T15:33:26Z</time>
      </trkpt>
      <trkpt lat="47.65008" lon="6.18318">
        <ele>255.6</ele>
        <time>2021-11-23T15:33:27Z</time>
      </trkpt>
      <trkpt lat="47.65002" lon="6.18316">
        <ele>255.4</ele>
        <time>2021-11-23T15:33:28Z</time>
      </trkpt>
      <trkpt lat="47.64997" lon="6.18314">
        <ele>255.2</ele>
        <time>2021-11-23T15:33:29Z</time>
      </trkpt>
      <trkpt lat="47.64991" lon="6.18313">
        <ele>255</ele>
        <time>2021-11-23T15:33:30Z</time>
      </trkpt>
      <trkpt lat="47.64986" lon="6.18312">
        <ele>254.9</ele>
        <time>2021-11-23T15:33:31Z</time>
      </trkpt>
      <trkpt lat="47.64981" lon="6.18312">
        <ele>254.7</ele>
        <time>2021-11-23T15:33:32Z</time>
      </trkpt>
      <trkpt lat="47.64975" lon="6.18311">
        <ele>254.5</ele>
        <time>2021-11-23T15:33:33Z</time>
      </trkpt>
      <trkpt lat="47.6497" lon="6.18311">
        <ele>254.4</ele>
        <time>2021-11-23T15:33:34Z</time>
      </trkpt>
      <trkpt lat="47.64965" lon="6.1831">
        <ele>254.3</ele>
        <time>2021-11-23T15:33:35Z</time>
      </trkpt>
      <trkpt lat="47.6496" lon="6.1831">
        <ele>254.3</ele>
        <time>2021-11-23T15:33:36Z</time>
      </trkpt>
      <trkpt lat="47.64955" lon="6.1831">
        <ele>254.3</ele>
        <time>2021-11-23T15:33:37Z</time>
      </trkpt>
      <trkpt lat="47.64946" lon="6.18309">
        <ele>254.2</ele>
        <time>2021-11-23T15:33:39Z</time>
      </trkpt>
      <trkpt lat="47.64941" lon="6.18308">
        <ele>254.2</ele>
        <time>2021-11-23T15:33:40Z</time>
      </trkpt>
      <trkpt lat="47.64937" lon="6.18308">
        <ele>254.2</ele>
        <time>2021-11-23T15:33:41Z</time>
      </trkpt>
      <trkpt lat="47.6493" lon="6.18306">
        <ele>254</ele>
        <time>2021-11-23T15:33:43Z</time>
      </trkpt>
      <trkpt lat="47.64922" lon="6.18304">
        <ele>253.9</ele>
        <time>2021-11-23T15:33:45Z</time>
      </trkpt>
      <trkpt lat="47.64914" lon="6.18301">
        <ele>253.7</ele>
        <time>2021-11-23T15:33:47Z</time>
      </trkpt>
      <trkpt lat="47.64903" lon="6.18296">
        <ele>253.3</ele>
        <time>2021-11-23T15:33:52Z</time>
      </trkpt>
      <trkpt lat="47.64895" lon="6.1829">
        <ele>252.9</ele>
        <time>2021-11-23T15:33:52Z</time>
      </trkpt>
      <trkpt lat="47.6489" lon="6.18287">
        <ele>252.7</ele>
        <time>2021-11-23T15:33:53Z</time>
      </trkpt>
      <trkpt lat="47.64884" lon="6.18283">
        <ele>252.5</ele>
        <time>2021-11-23T15:33:54Z</time>
      </trkpt>
      <trkpt lat="47.64878" lon="6.18279">
        <ele>252.5</ele>
        <time>2021-11-23T15:33:55Z</time>
      </trkpt>
      <trkpt lat="47.64872" lon="6.18275">
        <ele>252.2</ele>
        <time>2021-11-23T15:33:56Z</time>
      </trkpt>
      <trkpt lat="47.64866" lon="6.1827">
        <ele>252</ele>
        <time>2021-11-23T15:33:57Z</time>
      </trkpt>
      <trkpt lat="47.6486" lon="6.18266">
        <ele>251.8</ele>
        <time>2021-11-23T15:33:58Z</time>
      </trkpt>
      <trkpt lat="47.64854" lon="6.18263">
        <ele>251.6</ele>
        <time>2021-11-23T15:33:59Z</time>
      </trkpt>
      <trkpt lat="47.64849" lon="6.18259">
        <ele>251.4</ele>
        <time>2021-11-23T15:34:00Z</time>
      </trkpt>
      <trkpt lat="47.64844" lon="6.18256">
        <ele>251.2</ele>
        <time>2021-11-23T15:34:01Z</time>
      </trkpt>
      <trkpt lat="47.64839" lon="6.18253">
        <ele>251.1</ele>
        <time>2021-11-23T15:34:02Z</time>
      </trkpt>
      <trkpt lat="47.64834" lon="6.18249">
        <ele>250.9</ele>
        <time>2021-11-23T15:34:03Z</time>
      </trkpt>
      <trkpt lat="47.64828" lon="6.18246">
        <ele>250.8</ele>
        <time>2021-11-23T15:34:04Z</time>
      </trkpt>
      <trkpt lat="47.64824" lon="6.18242">
        <ele>250.7</ele>
        <time>2021-11-23T15:34:05Z</time>
      </trkpt>
      <trkpt lat="47.64819" lon="6.18239">
        <ele>250.6</ele>
        <time>2021-11-23T15:34:06Z</time>
      </trkpt>
      <trkpt lat="47.64814" lon="6.18235">
        <ele>250.6</ele>
        <time>2021-11-23T15:34:07Z</time>
      </trkpt>
      <trkpt lat="47.6481" lon="6.18232">
        <ele>250.6</ele>
        <time>2021-11-23T15:34:08Z</time>
      </trkpt>
      <trkpt lat="47.64806" lon="6.18228">
        <ele>250.6</ele>
        <time>2021-11-23T15:34:09Z</time>
      </trkpt>
      <trkpt lat="47.64802" lon="6.18225">
        <ele>250.6</ele>
        <time>2021-11-23T15:34:10Z</time>
      </trkpt>
      <trkpt lat="47.64796" lon="6.1822">
        <ele>250.6</ele>
        <time>2021-11-23T15:34:12Z</time>
      </trkpt>
      <trkpt lat="47.64789" lon="6.18214">
        <ele>250.7</ele>
        <time>2021-11-23T15:34:14Z</time>
      </trkpt>
      <trkpt lat="47.64782" lon="6.18208">
        <ele>250.8</ele>
        <time>2021-11-23T15:34:16Z</time>
      </trkpt>
      <trkpt lat="47.64782" lon="6.18219">
        <ele>252.1</ele>
        <time>2021-11-23T15:34:20Z</time>
      </trkpt>
      <trkpt lat="47.64778" lon="6.18213">
        <ele>251.9</ele>
        <time>2021-11-23T15:34:21Z</time>
      </trkpt>
      <trkpt lat="47.64774" lon="6.18206">
        <ele>251.7</ele>
        <time>2021-11-23T15:34:23Z</time>
      </trkpt>
      <trkpt lat="47.64769" lon="6.18198">
        <ele>251.7</ele>
        <time>2021-11-23T15:34:25Z</time>
      </trkpt>
      <trkpt lat="47.64764" lon="6.18193">
        <ele>251.7</ele>
        <time>2021-11-23T15:34:26Z</time>
      </trkpt>
      <trkpt lat="47.64761" lon="6.18188">
        <ele>251.7</ele>
        <time>2021-11-23T15:34:28Z</time>
      </trkpt>
      <trkpt lat="47.64756" lon="6.18182">
        <ele>251.8</ele>
        <time>2021-11-23T15:34:30Z</time>
      </trkpt>
      <trkpt lat="47.64752" lon="6.18177">
        <ele>251.8</ele>
        <time>2021-11-23T15:34:32Z</time>
      </trkpt>
      <trkpt lat="47.64747" lon="6.18171">
        <ele>251.7</ele>
        <time>2021-11-23T15:34:34Z</time>
      </trkpt>
      <trkpt lat="47.64742" lon="6.18163">
        <ele>251.5</ele>
        <time>2021-11-23T15:34:36Z</time>
      </trkpt>
      <trkpt lat="47.64738" lon="6.18155">
        <ele>251.4</ele>
        <time>2021-11-23T15:34:38Z</time>
      </trkpt>
      <trkpt lat="47.64731" lon="6.18143">
        <ele>251.7</ele>
        <time>2021-11-23T15:34:41Z</time>
      </trkpt>
      <trkpt lat="47.64727" lon="6.18137">
        <ele>251.9</ele>
        <time>2021-11-23T15:34:43Z</time>
      </trkpt>
      <trkpt lat="47.64718" lon="6.18124">
        <ele>251.7</ele>
        <time>2021-11-23T15:34:43Z</time>
      </trkpt>
      <trkpt lat="47.64715" lon="6.18119">
        <ele>251.4</ele>
        <time>2021-11-23T15:34:47Z</time>
      </trkpt>
      <trkpt lat="47.64708" lon="6.18106">
        <ele>250.8</ele>
        <time>2021-11-23T15:34:51Z</time>
      </trkpt>
      <trkpt lat="47.64704" lon="6.18098">
        <ele>250.4</ele>
        <time>2021-11-23T15:34:53Z</time>
      </trkpt>
      <trkpt lat="47.64696" lon="6.18085">
        <ele>250.9</ele>
        <time>2021-11-23T15:34:56Z</time>
      </trkpt>
      <trkpt lat="47.64691" lon="6.1808">
        <ele>250.5</ele>
        <time>2021-11-23T15:34:58Z</time>
      </trkpt>
      <trkpt lat="47.64686" lon="6.18074">
        <ele>250.1</ele>
        <time>2021-11-23T15:34:59Z</time>
      </trkpt>
      <trkpt lat="47.64681" lon="6.18069">
        <ele>249.9</ele>
        <time>2021-11-23T15:35:01Z</time>
      </trkpt>
      <trkpt lat="47.64676" lon="6.18064">
        <ele>250.1</ele>
        <time>2021-11-23T15:35:02Z</time>
      </trkpt>
      <trkpt lat="47.64672" lon="6.1806">
        <ele>250.4</ele>
        <time>2021-11-23T15:35:04Z</time>
      </trkpt>
      <trkpt lat="47.64667" lon="6.18054">
        <ele>250.7</ele>
        <time>2021-11-23T15:35:05Z</time>
      </trkpt>
      <trkpt lat="47.64663" lon="6.18049">
        <ele>250</ele>
        <time>2021-11-23T15:35:07Z</time>
      </trkpt>
      <trkpt lat="47.64659" lon="6.18044">
        <ele>249.2</ele>
        <time>2021-11-23T15:35:08Z</time>
      </trkpt>
      <trkpt lat="47.64655" lon="6.1804">
        <ele>248.5</ele>
        <time>2021-11-23T15:35:09Z</time>
      </trkpt>
      <trkpt lat="47.64642" lon="6.18023">
        <ele>246</ele>
        <time>2021-11-23T15:35:10Z</time>
      </trkpt>
      <trkpt lat="47.64633" lon="6.18018">
        <ele>243.8</ele>
        <time>2021-11-23T15:35:12Z</time>
      </trkpt>
      <trkpt lat="47.64629" lon="6.18016">
        <ele>242.6</ele>
        <time>2021-11-23T15:35:13Z</time>
      </trkpt>
      <trkpt lat="47.64616" lon="6.18019">
        <ele>240.7</ele>
        <time>2021-11-23T15:35:15Z</time>
      </trkpt>
      <trkpt lat="47.64609" lon="6.18023">
        <ele>239.8</ele>
        <time>2021-11-23T15:35:16Z</time>
      </trkpt>
      <trkpt lat="47.64603" lon="6.18027">
        <ele>239.1</ele>
        <time>2021-11-23T15:35:17Z</time>
      </trkpt>
      <trkpt lat="47.64597" lon="6.18032">
        <ele>238.2</ele>
        <time>2021-11-23T15:35:18Z</time>
      </trkpt>
      <trkpt lat="47.64592" lon="6.18038">
        <ele>237.6</ele>
        <time>2021-11-23T15:35:19Z</time>
      </trkpt>
      <trkpt lat="47.64588" lon="6.18044">
        <ele>237.2</ele>
        <time>2021-11-23T15:35:20Z</time>
      </trkpt>
      <trkpt lat="47.64584" lon="6.1805">
        <ele>236.8</ele>
        <time>2021-11-23T15:35:21Z</time>
      </trkpt>
      <trkpt lat="47.64581" lon="6.18057">
        <ele>236.5</ele>
        <time>2021-11-23T15:35:22Z</time>
      </trkpt>
      <trkpt lat="47.64578" lon="6.18063">
        <ele>236.3</ele>
        <time>2021-11-23T15:35:23Z</time>
      </trkpt>
      <trkpt lat="47.64575" lon="6.18069">
        <ele>236.1</ele>
        <time>2021-11-23T15:35:24Z</time>
      </trkpt>
      <trkpt lat="47.64572" lon="6.18075">
        <ele>235.9</ele>
        <time>2021-11-23T15:35:25Z</time>
      </trkpt>
      <trkpt lat="47.64569" lon="6.18081">
        <ele>235.8</ele>
        <time>2021-11-23T15:35:26Z</time>
      </trkpt>
      <trkpt lat="47.64565" lon="6.18091">
        <ele>235.4</ele>
        <time>2021-11-23T15:35:28Z</time>
      </trkpt>
      <trkpt lat="47.64561" lon="6.18097">
        <ele>234.8</ele>
        <time>2021-11-23T15:35:30Z</time>
      </trkpt>
      <trkpt lat="47.64557" lon="6.18101">
        <ele>234</ele>
        <time>2021-11-23T15:35:32Z</time>
      </trkpt>
      <trkpt lat="47.64554" lon="6.18096">
        <ele>233.2</ele>
        <time>2021-11-23T15:35:35Z</time>
      </trkpt>
      <trkpt lat="47.64555" lon="6.18087">
        <ele>233</ele>
        <time>2021-11-23T15:35:37Z</time>
      </trkpt>
      <trkpt lat="47.64551" lon="6.18081">
        <ele>231.7</ele>
        <time>2021-11-23T15:35:42Z</time>
      </trkpt>
      <trkpt lat="47.64552" lon="6.18062">
        <ele>230.8</ele>
        <time>2021-11-23T15:35:44Z</time>
      </trkpt>
      <trkpt lat="47.64552" lon="6.18054">
        <ele>230.2</ele>
        <time>2021-11-23T15:35:46Z</time>
      </trkpt>
      <trkpt lat="47.6455" lon="6.18043">
        <ele>229.1</ele>
        <time>2021-11-23T15:35:48Z</time>
      </trkpt>
      <trkpt lat="47.64545" lon="6.18037">
        <ele>228</ele>
        <time>2021-11-23T15:35:50Z</time>
      </trkpt>
      <trkpt lat="47.6454" lon="6.18041">
        <ele>227.4</ele>
        <time>2021-11-23T15:35:52Z</time>
      </trkpt>
      <trkpt lat="47.64536" lon="6.18045">
        <ele>226.9</ele>
        <time>2021-11-23T15:35:53Z</time>
      </trkpt>
      <trkpt lat="47.64524" lon="6.1805">
        <ele>225.5</ele>
        <time>2021-11-23T15:35:55Z</time>
      </trkpt>
      <trkpt lat="47.64508" lon="6.18046">
        <ele>224.2</ele>
        <time>2021-11-23T15:35:55Z</time>
      </trkpt>
      <trkpt lat="47.64502" lon="6.18043">
        <ele>223.7</ele>
        <time>2021-11-23T15:35:56Z</time>
      </trkpt>
      <trkpt lat="47.64497" lon="6.18039">
        <ele>223.4</ele>
        <time>2021-11-23T15:35:57Z</time>
      </trkpt>
      <trkpt lat="47.64492" lon="6.18035">
        <ele>223.2</ele>
        <time>2021-11-23T15:35:58Z</time>
      </trkpt>
      <trkpt lat="47.64487" lon="6.18034">
        <ele>223.1</ele>
        <time>2021-11-23T15:35:59Z</time>
      </trkpt>
      <trkpt lat="47.64483" lon="6.18036">
        <ele>223.1</ele>
        <time>2021-11-23T15:36:00Z</time>
      </trkpt>
      <trkpt lat="47.64478" lon="6.18042">
        <ele>223.1</ele>
        <time>2021-11-23T15:36:01Z</time>
      </trkpt>
      <trkpt lat="47.64475" lon="6.1805">
        <ele>223.1</ele>
        <time>2021-11-23T15:36:05Z</time>
      </trkpt>
      <trkpt lat="47.64472" lon="6.18057">
        <ele>223</ele>
        <time>2021-11-23T15:36:07Z</time>
      </trkpt>
      <trkpt lat="47.64478" lon="6.18069">
        <ele>223.1</ele>
        <time>2021-11-23T15:36:13Z</time>
      </trkpt>
      <trkpt lat="47.64484" lon="6.18067">
        <ele>223.3</ele>
        <time>2021-11-23T15:36:16Z</time>
      </trkpt>
      <trkpt lat="47.64484" lon="6.18059">
        <ele>223.4</ele>
        <time>2021-11-23T15:36:20Z</time>
      </trkpt>
      <trkpt lat="47.64486" lon="6.18053">
        <ele>223.4</ele>
        <time>2021-11-23T15:36:37Z</time>
      </trkpt>
      <trkpt lat="47.64482" lon="6.18055">
        <ele>223.3</ele>
        <time>2021-11-23T15:37:04Z</time>
      </trkpt>
      <trkpt lat="47.64484" lon="6.18048">
        <ele>223.3</ele>
        <time>2021-11-23T15:37:30Z</time>
      </trkpt>
      <trkpt lat="47.6449" lon="6.18037">
        <ele>223.2</ele>
        <time>2021-11-23T15:37:33Z</time>
      </trkpt>
      <trkpt lat="47.64494" lon="6.18042">
        <ele>223.4</ele>
        <time>2021-11-23T15:37:36Z</time>
      </trkpt>
      <trkpt lat="47.64499" lon="6.18047">
        <ele>223.7</ele>
        <time>2021-11-23T15:37:41Z</time>
      </trkpt>
      <trkpt lat="47.64504" lon="6.18051">
        <ele>224.1</ele>
        <time>2021-11-23T15:37:42Z</time>
      </trkpt>
      <trkpt lat="47.6451" lon="6.18053">
        <ele>224.6</ele>
        <time>2021-11-23T15:37:45Z</time>
      </trkpt>
      <trkpt lat="47.64515" lon="6.18056">
        <ele>225.1</ele>
        <time>2021-11-23T15:37:50Z</time>
      </trkpt>
      <trkpt lat="47.64517" lon="6.18071">
        <ele>225.3</ele>
        <time>2021-11-23T15:37:52Z</time>
      </trkpt>
      <trkpt lat="47.64514" lon="6.18077">
        <ele>225.1</ele>
        <time>2021-11-23T15:37:56Z</time>
      </trkpt>
      <trkpt lat="47.64512" lon="6.18085">
        <ele>224.7</ele>
        <time>2021-11-23T15:37:58Z</time>
      </trkpt>
      <trkpt lat="47.6451" lon="6.18091">
        <ele>224.5</ele>
        <time>2021-11-23T15:37:59Z</time>
      </trkpt>
      <trkpt lat="47.64507" lon="6.18103">
        <ele>224.2</ele>
        <time>2021-11-23T15:38:01Z</time>
      </trkpt>
      <trkpt lat="47.64502" lon="6.18122">
        <ele>223.4</ele>
        <time>2021-11-23T15:38:03Z</time>
      </trkpt>
      <trkpt lat="47.64501" lon="6.18129">
        <ele>223.2</ele>
        <time>2021-11-23T15:38:05Z</time>
      </trkpt>
      <trkpt lat="47.64498" lon="6.18148">
        <ele>223</ele>
        <time>2021-11-23T15:38:08Z</time>
      </trkpt>
      <trkpt lat="47.64497" lon="6.18156">
        <ele>222.9</ele>
        <time>2021-11-23T15:38:09Z</time>
      </trkpt>
      <trkpt lat="47.64498" lon="6.18165">
        <ele>222.9</ele>
        <time>2021-11-23T15:38:11Z</time>
      </trkpt>
      <trkpt lat="47.64499" lon="6.18173">
        <ele>223.2</ele>
        <time>2021-11-23T15:38:13Z</time>
      </trkpt>
      <trkpt lat="47.64501" lon="6.18179">
        <ele>223.7</ele>
        <time>2021-11-23T15:38:15Z</time>
      </trkpt>
      <trkpt lat="47.64503" lon="6.18188">
        <ele>224.5</ele>
        <time>2021-11-23T15:38:17Z</time>
      </trkpt>
      <trkpt lat="47.64501" lon="6.18195">
        <ele>224.3</ele>
        <time>2021-11-23T15:38:19Z</time>
      </trkpt>
      <trkpt lat="47.64497" lon="6.1821">
        <ele>224.9</ele>
        <time>2021-11-23T15:38:21Z</time>
      </trkpt>
      <trkpt lat="47.64497" lon="6.18217">
        <ele>225.3</ele>
        <time>2021-11-23T15:38:23Z</time>
      </trkpt>
      <trkpt lat="47.64494" lon="6.18223">
        <ele>225.4</ele>
        <time>2021-11-23T15:38:28Z</time>
      </trkpt>
      <trkpt lat="47.64487" lon="6.18238">
        <ele>225.5</ele>
        <time>2021-11-23T15:38:31Z</time>
      </trkpt>
      <trkpt lat="47.64479" lon="6.18253">
        <ele>224.6</ele>
        <time>2021-11-23T15:38:35Z</time>
      </trkpt>
      <trkpt lat="47.64476" lon="6.18258">
        <ele>224.3</ele>
        <time>2021-11-23T15:38:36Z</time>
      </trkpt>
      <trkpt lat="47.64468" lon="6.18272">
        <ele>224.3</ele>
        <time>2021-11-23T15:38:37Z</time>
      </trkpt>
      <trkpt lat="47.64463" lon="6.18276">
        <ele>224.2</ele>
        <time>2021-11-23T15:38:39Z</time>
      </trkpt>
      <trkpt lat="47.64458" lon="6.18282">
        <ele>224.3</ele>
        <time>2021-11-23T15:38:42Z</time>
      </trkpt>
      <trkpt lat="47.64455" lon="6.18287">
        <ele>224.3</ele>
        <time>2021-11-23T15:38:46Z</time>
      </trkpt>
      <trkpt lat="47.64451" lon="6.18293">
        <ele>224.3</ele>
        <time>2021-11-23T15:38:48Z</time>
      </trkpt>
      <trkpt lat="47.64445" lon="6.18301">
        <ele>223.9</ele>
        <time>2021-11-23T15:38:50Z</time>
      </trkpt>
      <trkpt lat="47.64441" lon="6.18315">
        <ele>224.5</ele>
        <time>2021-11-23T15:38:53Z</time>
      </trkpt>
      <trkpt lat="47.64441" lon="6.18324">
        <ele>225.1</ele>
        <time>2021-11-23T15:38:55Z</time>
      </trkpt>
      <trkpt lat="47.64438" lon="6.18332">
        <ele>225.4</ele>
        <time>2021-11-23T15:38:58Z</time>
      </trkpt>
    </trkseg>
  </trk>
</gpx>